Time,TemperatureF,DewpointF,PressureIn,WindDirection,WindDirectionDegrees,WindSpeedMPH,WindSpeedGustMPH,Humidity,HourlyPrecipIn,Conditions,Clouds,dailyrainin,SoftwareType,DateUTC
2013-05-20 00:00:00,56.8,32.8,30.19,NE,42,0.0,0.0,40,0.00,,---,0.00,VWS V14.00,2013-05-20 04:00:00,
2013-05-20 00:01:00,56.8,32.8,30.19,NE,42,0.0,0.0,40,0.00,,---,0.00,VWS V14.00,2013-05-20 04:01:00,
2013-05-20 00:06:00,56.8,32.8,30.19,North,8,4.0,4.0,40,0.00,,---,0.00,VWS V14.00,2013-05-20 04:06:00,
2013-05-20 00:11:00,56.8,32.8,30.19,North,7,0.0,0.0,40,0.00,,---,0.00,VWS V14.00,2013-05-20 04:11:00,
2013-05-20 00:16:00,56.8,32.2,30.19,North,7,0.0,0.0,39,0.00,,---,0.00,VWS V14.00,2013-05-20 04:16:00,
2013-05-20 00:17:00,56.8,32.2,30.19,North,7,4.0,4.0,39,0.00,,---,0.00,VWS V14.00,2013-05-20 04:17:00,
2013-05-20 00:21:00,56.7,32.0,30.19,North,7,3.4,3.4,39,0.00,,---,0.00,VWS V14.00,2013-05-20 04:21:00,
2013-05-20 00:22:00,56.7,32.0,30.19,North,7,0.0,3.4,39,0.00,,---,0.00,VWS V14.00,2013-05-20 04:22:00,
2013-05-20 00:26:00,56.7,32.6,30.19,North,7,0.0,0.0,40,0.00,,---,0.00,VWS V14.00,2013-05-20 04:26:00,
2013-05-20 00:27:00,56.7,32.6,30.19,North,7,0.0,0.0,40,0.00,,---,0.00,VWS V14.00,2013-05-20 04:27:00,
2013-05-20 00:31:00,56.7,32.6,30.19,North,7,0.0,0.0,40,0.00,,---,0.00,VWS V14.00,2013-05-20 04:31:00,
2013-05-20 00:32:00,56.7,32.6,30.19,North,7,0.0,0.0,40,0.00,,---,0.00,VWS V14.00,2013-05-20 04:32:00,
2013-05-20 00:33:00,56.7,33.2,30.19,North,7,0.0,0.0,41,0.00,,---,0.00,VWS V14.00,2013-05-20 04:33:00,
2013-05-20 00:36:00,56.8,34.0,30.19,NE,38,3.4,3.4,42,0.00,,---,0.00,VWS V14.00,2013-05-20 04:36:00,
2013-05-20 00:37:00,56.8,34.6,30.19,NE,38,0.0,3.4,43,0.00,,---,0.00,VWS V14.00,2013-05-20 04:37:00,
2013-05-20 00:38:00,56.8,34.6,30.19,NE,38,0.0,0.0,43,0.00,,---,0.00,VWS V14.00,2013-05-20 04:38:00,
2013-05-20 00:42:00,56.8,34.6,30.19,NE,38,0.0,0.0,43,0.00,,---,0.00,VWS V14.00,2013-05-20 04:42:00,
2013-05-20 00:43:00,56.8,34.6,30.19,ENE,67,3.4,4.0,43,0.00,,---,0.00,VWS V14.00,2013-05-20 04:43:00,
2013-05-20 00:47:00,56.8,34.6,30.19,NE,52,0.0,0.0,43,0.00,,---,0.00,VWS V14.00,2013-05-20 04:47:00,
2013-05-20 00:48:00,57.0,35.3,30.19,NE,52,0.0,0.0,44,0.00,,---,0.00,VWS V14.00,2013-05-20 04:48:00,
2013-05-20 00:52:00,56.8,35.2,30.19,NE,52,0.0,0.0,44,0.00,,---,0.00,VWS V14.00,2013-05-20 04:52:00,
2013-05-20 00:53:00,56.8,34.6,30.19,NE,51,0.0,4.0,43,0.00,,---,0.00,VWS V14.00,2013-05-20 04:53:00,
2013-05-20 00:57:00,56.8,34.6,30.19,NE,51,0.0,0.0,43,0.00,,---,0.00,VWS V14.00,2013-05-20 04:57:00,
2013-05-20 00:58:00,56.8,34.6,30.19,NE,51,0.0,0.0,43,0.00,,---,0.00,VWS V14.00,2013-05-20 04:58:00,
2013-05-20 01:02:00,56.7,34.4,30.19,NE,51,0.0,0.0,43,0.00,,---,0.00,VWS V14.00,2013-05-20 05:02:00,
2013-05-20 01:03:00,56.7,34.4,30.19,NE,51,0.0,0.0,43,0.00,,---,0.00,VWS V14.00,2013-05-20 05:03:00,
2013-05-20 01:08:00,56.5,34.3,30.19,NE,51,0.0,0.0,43,0.00,,---,0.00,VWS V14.00,2013-05-20 05:08:00,
2013-05-20 01:13:00,56.5,34.8,30.19,NE,51,0.0,0.0,44,0.00,,---,0.00,VWS V14.00,2013-05-20 05:13:00,
2013-05-20 01:18:00,56.3,34.7,30.19,NE,50,0.0,0.0,44,0.00,,---,0.00,VWS V14.00,2013-05-20 05:18:00,
2013-05-20 01:23:00,56.1,34.5,30.19,NE,50,0.0,0.0,44,0.00,,---,0.00,VWS V14.00,2013-05-20 05:23:00,
2013-05-20 01:24:00,56.1,34.5,30.19,NE,50,0.0,0.0,44,0.00,,---,0.00,VWS V14.00,2013-05-20 05:24:00,
2013-05-20 01:28:00,56.1,35.1,30.19,NE,50,0.0,0.0,45,0.00,,---,0.00,VWS V14.00,2013-05-20 05:28:00,
2013-05-20 01:29:00,56.1,35.1,30.19,NE,50,0.0,0.0,45,0.00,,---,0.00,VWS V14.00,2013-05-20 05:29:00,
2013-05-20 01:33:00,55.9,34.9,30.19,NE,50,0.0,0.0,45,0.00,,---,0.00,VWS V14.00,2013-05-20 05:33:00,
2013-05-20 01:34:00,55.9,34.9,30.19,NE,50,0.0,0.0,45,0.00,,---,0.00,VWS V14.00,2013-05-20 05:34:00,
2013-05-20 01:38:00,55.8,34.8,30.16,NE,50,0.0,0.0,45,0.00,,---,0.00,VWS V14.00,2013-05-20 05:38:00,
2013-05-20 01:39:00,55.8,34.8,30.16,NE,50,0.0,0.0,45,0.00,,---,0.00,VWS V14.00,2013-05-20 05:39:00,
2013-05-20 01:43:00,55.8,34.8,30.16,NE,50,0.0,0.0,45,0.00,,---,0.00,VWS V14.00,2013-05-20 05:43:00,
2013-05-20 01:44:00,55.8,35.3,30.16,NE,50,0.0,0.0,46,0.00,,---,0.00,VWS V14.00,2013-05-20 05:44:00,
2013-05-20 01:48:00,55.6,35.2,30.16,NE,50,0.0,0.0,46,0.00,,---,0.00,VWS V14.00,2013-05-20 05:48:00,
2013-05-20 01:49:00,55.4,35.0,30.16,NE,50,0.0,0.0,46,0.00,,---,0.00,VWS V14.00,2013-05-20 05:49:00,
2013-05-20 01:50:00,55.4,35.0,30.16,NE,50,0.0,0.0,46,0.00,,---,0.00,VWS V14.00,2013-05-20 05:50:00,
2013-05-20 01:53:00,55.4,35.0,30.19,NE,50,0.0,0.0,46,0.00,,---,0.00,VWS V14.00,2013-05-20 05:53:00,
2013-05-20 01:54:00,55.4,35.0,30.19,NE,50,0.0,0.0,46,0.00,,---,0.00,VWS V14.00,2013-05-20 05:54:00,
2013-05-20 01:55:00,55.4,35.0,30.19,NE,50,0.0,0.0,46,0.00,,---,0.00,VWS V14.00,2013-05-20 05:55:00,
2013-05-20 01:56:00,55.4,35.0,30.19,NE,50,0.0,0.0,46,0.00,,---,0.00,VWS V14.00,2013-05-20 05:56:00,
2013-05-20 01:59:00,55.4,35.5,30.19,NE,50,0.0,0.0,47,0.00,,---,0.00,VWS V14.00,2013-05-20 05:59:00,
2013-05-20 02:00:00,55.4,36.1,30.19,NE,50,0.0,0.0,48,0.00,,---,0.00,VWS V14.00,2013-05-20 06:00:00,
2013-05-20 02:01:00,55.4,36.1,30.19,NE,50,0.0,0.0,48,0.00,,---,0.00,VWS V14.00,2013-05-20 06:01:00,
2013-05-20 02:04:00,55.4,37.1,30.19,NE,50,0.0,0.0,50,0.00,,---,0.00,VWS V14.00,2013-05-20 06:04:00,
2013-05-20 02:05:00,55.2,37.4,30.19,NE,50,0.0,0.0,51,0.00,,---,0.00,VWS V14.00,2013-05-20 06:05:00,
2013-05-20 02:06:00,55.2,37.9,30.19,NE,50,0.0,0.0,52,0.00,,---,0.00,VWS V14.00,2013-05-20 06:06:00,
2013-05-20 02:09:00,55.2,37.9,30.16,NE,50,0.0,0.0,52,0.00,,---,0.00,VWS V14.00,2013-05-20 06:09:00,
2013-05-20 02:10:00,55.2,38.4,30.16,NE,50,0.0,0.0,53,0.00,,---,0.00,VWS V14.00,2013-05-20 06:10:00,
2013-05-20 02:11:00,55.2,38.4,30.16,NE,50,0.0,0.0,53,0.00,,---,0.00,VWS V14.00,2013-05-20 06:11:00,
2013-05-20 02:14:00,55.2,39.3,30.16,NE,50,0.0,0.0,55,0.00,,---,0.00,VWS V14.00,2013-05-20 06:14:00,
2013-05-20 02:15:00,55.2,39.3,30.16,NE,50,0.0,0.0,55,0.00,,---,0.00,VWS V14.00,2013-05-20 06:15:00,
2013-05-20 02:17:00,55.2,38.9,30.16,NE,50,0.0,0.0,54,0.00,,---,0.00,VWS V14.00,2013-05-20 06:17:00,
2013-05-20 02:19:00,55.2,39.3,30.16,NE,50,0.0,0.0,55,0.00,,---,0.00,VWS V14.00,2013-05-20 06:19:00,
2013-05-20 02:20:00,55.2,39.8,30.16,NE,50,0.0,0.0,56,0.00,,---,0.00,VWS V14.00,2013-05-20 06:20:00,
2013-05-20 02:22:00,55.2,40.3,30.16,NE,50,0.0,0.0,57,0.00,,---,0.00,VWS V14.00,2013-05-20 06:22:00,
2013-05-20 02:24:00,55.2,40.7,30.16,NE,50,0.0,0.0,58,0.00,,---,0.00,VWS V14.00,2013-05-20 06:24:00,
2013-05-20 02:25:00,55.2,41.2,30.16,NE,50,0.0,0.0,59,0.00,,---,0.00,VWS V14.00,2013-05-20 06:25:00,
2013-05-20 02:27:00,55.2,41.2,30.16,NE,50,0.0,0.0,59,0.00,,---,0.00,VWS V14.00,2013-05-20 06:27:00,
2013-05-20 02:29:00,55.4,41.3,30.16,NE,50,0.0,0.0,59,0.00,,---,0.00,VWS V14.00,2013-05-20 06:29:00,
2013-05-20 02:30:00,55.2,41.6,30.16,NE,50,0.0,0.0,60,0.00,,---,0.00,VWS V14.00,2013-05-20 06:30:00,
2013-05-20 02:31:00,55.2,41.2,30.16,NE,50,0.0,0.0,59,0.00,,---,0.00,VWS V14.00,2013-05-20 06:31:00,
2013-05-20 02:32:00,55.2,41.2,30.16,NE,50,0.0,0.0,59,0.00,,---,0.00,VWS V14.00,2013-05-20 06:32:00,
2013-05-20 02:34:00,55.4,40.4,30.16,NE,50,0.0,0.0,57,0.00,,---,0.00,VWS V14.00,2013-05-20 06:34:00,
2013-05-20 02:35:00,55.4,40.4,30.16,NE,50,0.0,0.0,57,0.00,,---,0.00,VWS V14.00,2013-05-20 06:35:00,
2013-05-20 02:36:00,55.4,40.4,30.16,NE,50,0.0,0.0,57,0.00,,---,0.00,VWS V14.00,2013-05-20 06:36:00,
2013-05-20 02:37:00,55.4,40.0,30.16,NE,50,0.0,0.0,56,0.00,,---,0.00,VWS V14.00,2013-05-20 06:37:00,
2013-05-20 02:39:00,55.2,39.8,30.16,NE,50,0.0,0.0,56,0.00,,---,0.00,VWS V14.00,2013-05-20 06:39:00,
2013-05-20 02:40:00,55.2,39.8,30.16,NE,50,0.0,0.0,56,0.00,,---,0.00,VWS V14.00,2013-05-20 06:40:00,
2013-05-20 02:41:00,55.2,39.3,30.16,NE,50,0.0,0.0,55,0.00,,---,0.00,VWS V14.00,2013-05-20 06:41:00,
2013-05-20 02:43:00,55.2,39.3,30.16,NE,50,0.0,0.0,55,0.00,,---,0.00,VWS V14.00,2013-05-20 06:43:00,
2013-05-20 02:44:00,55.2,38.9,30.16,NE,50,0.0,0.0,54,0.00,,---,0.00,VWS V14.00,2013-05-20 06:44:00,
2013-05-20 02:45:00,55.2,38.9,30.16,NE,50,0.0,0.0,54,0.00,,---,0.00,VWS V14.00,2013-05-20 06:45:00,
2013-05-20 02:46:00,55.2,38.9,30.16,NE,50,0.0,0.0,54,0.00,,---,0.00,VWS V14.00,2013-05-20 06:46:00,
2013-05-20 02:48:00,55.4,39.0,30.16,NE,50,0.0,0.0,54,0.00,,---,0.00,VWS V14.00,2013-05-20 06:48:00,
2013-05-20 02:49:00,55.4,39.0,30.16,NE,50,0.0,0.0,54,0.00,,---,0.00,VWS V14.00,2013-05-20 06:49:00,
2013-05-20 02:50:00,55.4,39.0,30.16,NE,50,0.0,0.0,54,0.00,,---,0.00,VWS V14.00,2013-05-20 06:50:00,
2013-05-20 02:51:00,55.4,39.0,30.16,NE,50,0.0,0.0,54,0.00,,---,0.00,VWS V14.00,2013-05-20 06:51:00,
2013-05-20 02:53:00,55.6,39.2,30.16,NE,50,0.0,0.0,54,0.00,,---,0.00,VWS V14.00,2013-05-20 06:53:00,
2013-05-20 02:54:00,55.6,39.2,30.16,NE,50,0.0,0.0,54,0.00,,---,0.00,VWS V14.00,2013-05-20 06:54:00,
2013-05-20 02:55:00,55.6,39.2,30.16,NE,50,0.0,0.0,54,0.00,,---,0.00,VWS V14.00,2013-05-20 06:55:00,
2013-05-20 02:56:00,55.6,39.2,30.16,NE,50,0.0,0.0,54,0.00,,---,0.00,VWS V14.00,2013-05-20 06:56:00,
2013-05-20 02:58:00,55.6,38.2,30.16,NE,50,0.0,0.0,52,0.00,,---,0.00,VWS V14.00,2013-05-20 06:58:00,
2013-05-20 03:00:00,55.6,37.8,30.16,NE,50,0.0,0.0,51,0.00,,---,0.00,VWS V14.00,2013-05-20 07:00:00,
2013-05-20 03:01:00,55.6,37.2,30.16,NE,50,0.0,0.0,50,0.00,,---,0.00,VWS V14.00,2013-05-20 07:01:00,
2013-05-20 03:03:00,55.8,36.4,30.16,NE,50,0.0,0.0,48,0.00,,---,0.00,VWS V14.00,2013-05-20 07:03:00,
2013-05-20 03:05:00,55.8,35.8,30.16,NE,50,0.0,0.0,47,0.00,,---,0.00,VWS V14.00,2013-05-20 07:05:00,
2013-05-20 03:06:00,55.8,35.3,30.16,NE,50,0.0,0.0,46,0.00,,---,0.00,VWS V14.00,2013-05-20 07:06:00,
2013-05-20 03:08:00,55.8,34.8,30.16,NE,50,0.0,0.0,45,0.00,,---,0.00,VWS V14.00,2013-05-20 07:08:00,
2013-05-20 03:10:00,55.9,34.9,30.16,NE,50,0.0,0.0,45,0.00,,---,0.00,VWS V14.00,2013-05-20 07:10:00,
2013-05-20 03:11:00,55.9,34.4,30.16,NE,50,0.0,0.0,44,0.00,,---,0.00,VWS V14.00,2013-05-20 07:11:00,
2013-05-20 03:12:00,55.9,34.4,30.16,NE,50,0.0,0.0,44,0.00,,---,0.00,VWS V14.00,2013-05-20 07:12:00,
2013-05-20 03:13:00,55.9,34.4,30.16,NE,50,0.0,0.0,44,0.00,,---,0.00,VWS V14.00,2013-05-20 07:13:00,
2013-05-20 03:15:00,56.1,34.0,30.16,NE,50,0.0,0.0,43,0.00,,---,0.00,VWS V14.00,2013-05-20 07:15:00,
2013-05-20 03:16:00,56.1,33.4,30.16,NE,50,0.0,0.0,42,0.00,,---,0.00,VWS V14.00,2013-05-20 07:16:00,
2013-05-20 03:17:00,56.1,33.4,30.16,NE,50,0.0,0.0,42,0.00,,---,0.00,VWS V14.00,2013-05-20 07:17:00,
2013-05-20 03:19:00,56.1,32.8,30.16,NE,50,0.0,0.0,41,0.00,,---,0.00,VWS V14.00,2013-05-20 07:19:00,
2013-05-20 03:20:00,56.3,32.3,30.16,NE,50,0.0,0.0,40,0.00,,---,0.00,VWS V14.00,2013-05-20 07:20:00,
2013-05-20 03:22:00,56.3,32.3,30.16,NE,50,0.0,0.0,40,0.00,,---,0.00,VWS V14.00,2013-05-20 07:22:00,
2013-05-20 03:24:00,56.5,32.5,30.16,NE,50,0.0,0.0,40,0.00,,---,0.00,VWS V14.00,2013-05-20 07:24:00,
2013-05-20 03:25:00,56.5,31.8,30.16,NE,50,0.0,0.0,39,0.00,,---,0.00,VWS V14.00,2013-05-20 07:25:00,
2013-05-20 03:27:00,56.5,31.2,30.16,NE,50,0.0,0.0,38,0.00,,---,0.00,VWS V14.00,2013-05-20 07:27:00,
2013-05-20 03:29:00,56.5,31.2,30.16,NE,50,0.0,0.0,38,0.00,,---,0.00,VWS V14.00,2013-05-20 07:29:00,
2013-05-20 03:30:00,56.5,31.2,30.16,NE,50,0.0,0.0,38,0.00,,---,0.00,VWS V14.00,2013-05-20 07:30:00,
2013-05-20 03:32:00,56.5,31.2,30.16,NE,50,0.0,0.0,38,0.00,,---,0.00,VWS V14.00,2013-05-20 07:32:00,
2013-05-20 03:34:00,56.5,30.5,30.16,NE,50,0.0,0.0,37,0.00,,---,0.00,VWS V14.00,2013-05-20 07:34:00,
2013-05-20 03:35:00,56.3,30.4,30.16,NE,50,0.0,0.0,37,0.00,,---,0.00,VWS V14.00,2013-05-20 07:35:00,
2013-05-20 03:37:00,56.3,30.4,30.16,NE,50,0.0,0.0,37,0.00,,---,0.00,VWS V14.00,2013-05-20 07:37:00,
2013-05-20 03:39:00,56.5,30.5,30.16,NE,50,0.0,0.0,37,0.00,,---,0.00,VWS V14.00,2013-05-20 07:39:00,
2013-05-20 03:40:00,56.5,30.5,30.16,NE,50,0.0,0.0,37,0.00,,---,0.00,VWS V14.00,2013-05-20 07:40:00,
2013-05-20 03:42:00,56.5,30.5,30.16,NE,50,0.0,0.0,37,0.00,,---,0.00,VWS V14.00,2013-05-20 07:42:00,
2013-05-20 03:44:00,56.7,30.7,30.16,NE,50,0.0,0.0,37,0.00,,---,0.00,VWS V14.00,2013-05-20 07:44:00,
2013-05-20 03:45:00,56.7,30.7,30.16,NE,50,0.0,0.0,37,0.00,,---,0.00,VWS V14.00,2013-05-20 07:45:00,
2013-05-20 03:47:00,56.7,30.0,30.16,NE,50,0.0,0.0,36,0.00,,---,0.00,VWS V14.00,2013-05-20 07:47:00,
2013-05-20 03:49:00,56.7,30.0,30.16,NE,55,0.0,0.0,36,0.00,,---,0.00,VWS V14.00,2013-05-20 07:49:00,
2013-05-20 03:50:00,56.7,30.0,30.16,NE,55,0.0,0.0,36,0.00,,---,0.00,VWS V14.00,2013-05-20 07:50:00,
2013-05-20 03:52:00,56.7,29.3,30.13,ENE,60,0.0,0.0,35,0.00,,---,0.00,VWS V14.00,2013-05-20 07:52:00,
2013-05-20 03:53:00,56.7,29.3,30.13,ENE,60,0.0,0.0,35,0.00,,---,0.00,VWS V14.00,2013-05-20 07:53:00,
2013-05-20 03:54:00,56.7,29.3,30.13,NE,47,0.0,0.0,35,0.00,,---,0.00,VWS V14.00,2013-05-20 07:54:00,
2013-05-20 03:55:00,56.7,29.3,30.13,NE,49,0.0,0.0,35,0.00,,---,0.00,VWS V14.00,2013-05-20 07:55:00,
2013-05-20 03:58:00,56.3,29.0,30.13,NE,52,0.0,0.0,35,0.00,,---,0.00,VWS V14.00,2013-05-20 07:58:00,
2013-05-20 03:59:00,56.3,29.0,30.13,ENE,62,0.0,0.0,35,0.00,,---,0.00,VWS V14.00,2013-05-20 07:59:00,
2013-05-20 04:00:00,56.1,28.9,30.13,NE,34,0.0,0.0,35,0.00,,---,0.00,VWS V14.00,2013-05-20 08:00:00,
2013-05-20 04:01:00,56.1,28.9,30.13,NE,45,0.0,0.0,35,0.00,,---,0.00,VWS V14.00,2013-05-20 08:01:00,
2013-05-20 04:03:00,55.9,29.4,30.13,NE,54,3.4,3.4,36,0.00,,---,0.00,VWS V14.00,2013-05-20 08:03:00,
2013-05-20 04:05:00,55.8,29.2,30.13,NE,52,4.7,4.7,36,0.00,,---,0.00,VWS V14.00,2013-05-20 08:05:00,
2013-05-20 04:06:00,55.6,29.7,30.13,ENE,59,5.4,6.0,37,0.00,,---,0.00,VWS V14.00,2013-05-20 08:06:00,
2013-05-20 04:08:00,55.6,29.7,30.13,ENE,57,6.0,6.0,37,0.00,,---,0.00,VWS V14.00,2013-05-20 08:08:00,
2013-05-20 04:10:00,55.4,29.6,30.13,NE,45,4.7,4.7,37,0.00,,---,0.00,VWS V14.00,2013-05-20 08:10:00,
2013-05-20 04:11:00,55.4,29.6,30.13,NE,52,6.0,6.0,37,0.00,,---,0.00,VWS V14.00,2013-05-20 08:11:00,
2013-05-20 04:13:00,55.2,30.1,30.13,NE,54,4.7,6.0,38,0.00,,---,0.00,VWS V14.00,2013-05-20 08:13:00,
2013-05-20 04:15:00,55.0,29.9,30.13,NE,47,6.0,6.0,38,0.00,,---,0.00,VWS V14.00,2013-05-20 08:15:00,
2013-05-20 04:16:00,55.0,29.9,30.13,NE,40,6.0,7.4,38,0.00,,---,0.00,VWS V14.00,2013-05-20 08:16:00,
2013-05-20 04:17:00,55.0,29.9,30.13,NE,53,5.4,6.0,38,0.00,,---,0.00,VWS V14.00,2013-05-20 08:17:00,
2013-05-20 04:18:00,54.9,29.8,30.13,NE,47,5.4,5.4,38,0.00,,---,0.00,VWS V14.00,2013-05-20 08:18:00,
2013-05-20 04:20:00,54.9,29.8,30.13,ENE,57,4.0,4.7,38,0.00,,---,0.00,VWS V14.00,2013-05-20 08:20:00,
2013-05-20 04:21:00,54.9,29.8,30.13,ENE,61,5.4,5.4,38,0.00,,---,0.00,VWS V14.00,2013-05-20 08:21:00,
2013-05-20 04:22:00,54.9,29.8,30.13,NE,46,5.4,5.4,38,0.00,,---,0.00,VWS V14.00,2013-05-20 08:22:00,
2013-05-20 04:23:00,54.9,29.8,30.13,NE,52,4.7,6.0,38,0.00,,---,0.00,VWS V14.00,2013-05-20 08:23:00,
2013-05-20 04:26:00,54.7,29.6,30.13,ENE,57,5.4,6.0,38,0.00,,---,0.00,VWS V14.00,2013-05-20 08:26:00,
2013-05-20 04:27:00,54.7,29.6,30.13,ENE,57,4.0,4.7,38,0.00,,---,0.00,VWS V14.00,2013-05-20 08:27:00,
2013-05-20 04:28:00,54.5,30.1,30.13,NE,49,5.4,5.4,39,0.00,,---,0.00,VWS V14.00,2013-05-20 08:28:00,
2013-05-20 04:29:00,54.5,30.1,30.13,NE,46,6.0,6.0,39,0.00,,---,0.00,VWS V14.00,2013-05-20 08:29:00,
2013-05-20 04:31:00,54.5,29.4,30.13,NE,46,4.7,5.4,38,0.00,,---,0.00,VWS V14.00,2013-05-20 08:31:00,
2013-05-20 04:33:00,54.5,30.1,30.13,NE,50,4.0,4.7,39,0.00,,---,0.00,VWS V14.00,2013-05-20 08:33:00,
2013-05-20 04:34:00,54.5,30.1,30.13,NE,52,3.4,3.4,39,0.00,,---,0.00,VWS V14.00,2013-05-20 08:34:00,
2013-05-20 04:36:00,54.3,29.9,30.13,NE,55,4.7,4.7,39,0.00,,---,0.00,VWS V14.00,2013-05-20 08:36:00,
2013-05-20 04:38:00,54.3,29.9,30.16,NE,52,4.0,4.0,39,0.00,,---,0.00,VWS V14.00,2013-05-20 08:38:00,
2013-05-20 04:39:00,54.3,29.9,30.16,ENE,64,4.0,4.0,39,0.00,,---,0.00,VWS V14.00,2013-05-20 08:39:00,
2013-05-20 04:41:00,54.3,30.5,30.16,ENE,64,0.0,0.0,40,0.00,,---,0.00,VWS V14.00,2013-05-20 08:41:00,
2013-05-20 04:43:00,54.3,30.5,30.16,NE,56,0.0,3.4,40,0.00,,---,0.00,VWS V14.00,2013-05-20 08:43:00,
2013-05-20 04:44:00,54.3,30.5,30.16,NE,54,4.0,4.0,40,0.00,,---,0.00,VWS V14.00,2013-05-20 08:44:00,
2013-05-20 04:46:00,54.5,30.7,30.16,ENE,58,3.4,4.0,40,0.00,,---,0.00,VWS V14.00,2013-05-20 08:46:00,
2013-05-20 04:47:00,54.5,30.7,30.16,ENE,60,4.0,4.0,40,0.00,,---,0.00,VWS V14.00,2013-05-20 08:47:00,
2013-05-20 04:48:00,54.5,30.1,30.16,ENE,60,0.0,3.4,39,0.00,,---,0.00,VWS V14.00,2013-05-20 08:48:00,
2013-05-20 04:49:00,54.5,30.1,30.16,ENE,60,0.0,3.4,39,0.00,,---,0.00,VWS V14.00,2013-05-20 08:49:00,
2013-05-20 04:51:00,54.7,30.2,30.16,NE,55,3.4,4.7,39,0.00,,---,0.00,VWS V14.00,2013-05-20 08:51:00,
2013-05-20 04:52:00,54.7,30.2,30.16,ENE,63,4.0,4.0,39,0.00,,---,0.00,VWS V14.00,2013-05-20 08:52:00,
2013-05-20 04:53:00,54.7,30.2,30.13,ENE,63,3.4,4.0,39,0.00,,---,0.00,VWS V14.00,2013-05-20 08:53:00,
2013-05-20 04:54:00,54.7,30.2,30.13,NE,51,3.4,4.0,39,0.00,,---,0.00,VWS V14.00,2013-05-20 08:54:00,
2013-05-20 04:56:00,54.5,30.1,30.13,ENE,65,3.4,3.4,39,0.00,,---,0.00,VWS V14.00,2013-05-20 08:56:00,
2013-05-20 04:57:00,54.5,30.1,30.13,ENE,64,3.4,3.4,39,0.00,,---,0.00,VWS V14.00,2013-05-20 08:57:00,
2013-05-20 04:59:00,54.5,30.1,30.13,ENE,64,0.0,3.4,39,0.00,,---,0.00,VWS V14.00,2013-05-20 08:59:00,
2013-05-20 05:01:00,54.5,30.7,30.13,East,87,3.4,4.0,40,0.00,,---,0.00,VWS V14.00,2013-05-20 09:01:00,
2013-05-20 05:02:00,54.5,30.7,30.13,East,79,0.0,0.0,40,0.00,,---,0.00,VWS V14.00,2013-05-20 09:02:00,
2013-05-20 05:04:00,54.5,30.7,30.13,ENE,72,0.0,3.4,40,0.00,,---,0.00,VWS V14.00,2013-05-20 09:04:00,
2013-05-20 05:06:00,54.3,30.5,30.13,ENE,72,0.0,0.0,40,0.00,,---,0.00,VWS V14.00,2013-05-20 09:06:00,
2013-05-20 05:07:00,54.3,30.5,30.13,ENE,72,3.4,4.0,40,0.00,,---,0.00,VWS V14.00,2013-05-20 09:07:00,
2013-05-20 05:09:00,54.3,30.5,30.13,ENE,72,0.0,0.0,40,0.00,,---,0.00,VWS V14.00,2013-05-20 09:09:00,
2013-05-20 05:10:00,54.1,30.4,30.13,ENE,72,0.0,0.0,40,0.00,,---,0.00,VWS V14.00,2013-05-20 09:10:00,
2013-05-20 05:11:00,54.1,30.4,30.13,ENE,72,0.0,0.0,40,0.00,,---,0.00,VWS V14.00,2013-05-20 09:11:00,
2013-05-20 05:12:00,54.1,30.4,30.13,ENE,72,0.0,0.0,40,0.00,,---,0.00,VWS V14.00,2013-05-20 09:12:00,
2013-05-20 05:14:00,54.0,30.8,30.13,ENE,72,0.0,0.0,41,0.00,,---,0.00,VWS V14.00,2013-05-20 09:14:00,
2013-05-20 05:15:00,54.0,30.8,30.13,ENE,72,0.0,0.0,41,0.00,,---,0.00,VWS V14.00,2013-05-20 09:15:00,
2013-05-20 05:17:00,54.0,30.8,30.13,ENE,72,0.0,0.0,41,0.00,,---,0.00,VWS V14.00,2013-05-20 09:17:00,
2013-05-20 05:18:00,54.1,31.6,30.13,ENE,72,3.4,3.4,42,0.00,,---,0.00,VWS V14.00,2013-05-20 09:18:00,
2013-05-20 05:19:00,54.1,31.6,30.13,ENE,72,3.4,4.0,42,0.00,,---,0.00,VWS V14.00,2013-05-20 09:19:00,
2013-05-20 05:20:00,54.1,31.6,30.13,ENE,72,4.0,4.0,42,0.00,,---,0.00,VWS V14.00,2013-05-20 09:20:00,
2013-05-20 05:22:00,54.1,31.6,30.13,ENE,72,4.0,4.0,42,0.00,,---,0.00,VWS V14.00,2013-05-20 09:22:00,
2013-05-20 05:23:00,54.1,31.6,30.13,ENE,72,0.0,4.0,42,0.00,,---,0.00,VWS V14.00,2013-05-20 09:23:00,
2013-05-20 05:24:00,54.1,31.0,30.13,ENE,72,0.0,0.0,41,0.00,,---,0.00,VWS V14.00,2013-05-20 09:24:00,
2013-05-20 05:25:00,54.1,31.0,30.13,ENE,72,0.0,0.0,41,0.00,,---,0.00,VWS V14.00,2013-05-20 09:25:00,
2013-05-20 05:27:00,54.1,31.0,30.13,ENE,72,0.0,0.0,41,0.00,,---,0.00,VWS V14.00,2013-05-20 09:27:00,
2013-05-20 05:28:00,54.1,31.0,30.13,ENE,72,0.0,0.0,41,0.00,,---,0.00,VWS V14.00,2013-05-20 09:28:00,
2013-05-20 05:30:00,54.0,30.2,30.13,ENE,72,0.0,0.0,40,0.00,,---,0.00,VWS V14.00,2013-05-20 09:30:00,
2013-05-20 05:32:00,54.0,30.2,30.13,ENE,72,0.0,0.0,40,0.00,,---,0.00,VWS V14.00,2013-05-20 09:32:00,
2013-05-20 05:33:00,54.0,30.2,30.13,ENE,72,4.0,4.0,40,0.00,,---,0.00,VWS V14.00,2013-05-20 09:33:00,
2013-05-20 05:35:00,54.0,30.8,30.13,ENE,72,3.4,3.4,41,0.00,,---,0.00,VWS V14.00,2013-05-20 09:35:00,
2013-05-20 05:37:00,54.1,31.6,30.13,ENE,72,0.0,0.0,42,0.00,,---,0.00,VWS V14.00,2013-05-20 09:37:00,
2013-05-20 05:38:00,54.3,31.7,30.13,ENE,72,0.0,0.0,42,0.00,,---,0.00,VWS V14.00,2013-05-20 09:38:00,
2013-05-20 05:40:00,54.3,31.7,30.13,ENE,72,0.0,0.0,42,0.00,,---,0.00,VWS V14.00,2013-05-20 09:40:00,
2013-05-20 05:41:00,54.5,31.9,30.13,ENE,72,0.0,0.0,42,0.00,,---,0.00,VWS V14.00,2013-05-20 09:41:00,
2013-05-20 05:42:00,54.5,31.9,30.13,ENE,72,0.0,0.0,42,0.00,,---,0.00,VWS V14.00,2013-05-20 09:42:00,
2013-05-20 05:43:00,54.5,31.3,30.13,ENE,72,0.0,0.0,41,0.00,,---,0.00,VWS V14.00,2013-05-20 09:43:00,
2013-05-20 05:45:00,54.7,31.5,30.13,ENE,72,0.0,0.0,41,0.00,,---,0.00,VWS V14.00,2013-05-20 09:45:00,
2013-05-20 05:46:00,54.7,30.9,30.13,ENE,72,0.0,0.0,40,0.00,,---,0.00,VWS V14.00,2013-05-20 09:46:00,
2013-05-20 05:47:00,54.9,31.0,30.13,ENE,72,0.0,3.4,40,0.00,,---,0.00,VWS V14.00,2013-05-20 09:47:00,
2013-05-20 05:48:00,55.0,31.2,30.13,ENE,72,0.0,0.0,40,0.00,,---,0.00,VWS V14.00,2013-05-20 09:48:00,
2013-05-20 05:50:00,55.2,31.3,30.13,ENE,72,0.0,0.0,40,0.00,,---,0.00,VWS V14.00,2013-05-20 09:50:00,
2013-05-20 05:51:00,55.2,31.3,30.13,ENE,72,0.0,0.0,40,0.00,,---,0.00,VWS V14.00,2013-05-20 09:51:00,
2013-05-20 05:53:00,55.4,31.5,30.13,ENE,72,0.0,0.0,40,0.00,,---,0.00,VWS V14.00,2013-05-20 09:53:00,
2013-05-20 05:55:00,55.2,30.1,30.13,ENE,72,0.0,0.0,38,0.00,,---,0.00,VWS V14.00,2013-05-20 09:55:00,
2013-05-20 05:56:00,55.2,30.1,30.13,ENE,72,0.0,0.0,38,0.00,,---,0.00,VWS V14.00,2013-05-20 09:56:00,
2013-05-20 05:58:00,55.2,30.1,30.13,ENE,72,0.0,0.0,38,0.00,,---,0.00,VWS V14.00,2013-05-20 09:58:00,
2013-05-20 06:00:00,55.4,30.2,30.13,ENE,72,0.0,0.0,38,0.00,,---,0.00,VWS V14.00,2013-05-20 10:00:00,
2013-05-20 06:01:00,55.6,30.4,30.13,ENE,72,0.0,0.0,38,0.00,,---,0.00,VWS V14.00,2013-05-20 10:01:00,
2013-05-20 06:03:00,55.6,30.4,30.13,ENE,72,3.4,3.4,38,0.00,,---,0.00,VWS V14.00,2013-05-20 10:03:00,
2013-05-20 06:05:00,55.8,30.6,30.13,SE,140,4.0,4.0,38,0.00,,---,0.00,VWS V14.00,2013-05-20 10:05:00,
2013-05-20 06:07:00,55.9,30.7,30.13,SE,142,4.0,4.0,38,0.00,,---,0.00,VWS V14.00,2013-05-20 10:07:00,
2013-05-20 06:08:00,56.1,30.2,30.13,ESE,114,4.0,4.0,37,0.00,,---,0.00,VWS V14.00,2013-05-20 10:08:00,
2013-05-20 06:10:00,56.3,28.3,30.13,SE,135,0.0,3.4,34,0.00,,---,0.00,VWS V14.00,2013-05-20 10:10:00,
2013-05-20 06:11:00,56.3,29.0,30.13,SE,135,4.0,4.0,35,0.00,,---,0.00,VWS V14.00,2013-05-20 10:11:00,
2013-05-20 06:12:00,56.5,29.2,30.13,ESE,102,5.4,5.4,35,0.00,,---,0.00,VWS V14.00,2013-05-20 10:12:00,
2013-05-20 06:13:00,56.8,29.5,30.13,East,89,4.7,4.7,35,0.00,,---,0.00,VWS V14.00,2013-05-20 10:13:00,
2013-05-20 06:14:00,56.8,29.5,30.13,East,91,0.0,4.7,35,0.00,,---,0.00,VWS V14.00,2013-05-20 10:14:00,
2013-05-20 06:15:00,57.0,29.7,30.13,ESE,103,4.0,4.0,35,0.00,,---,0.00,VWS V14.00,2013-05-20 10:15:00,
2013-05-20 06:16:00,57.2,29.1,30.13,ESE,103,5.4,5.4,34,0.00,,---,0.00,VWS V14.00,2013-05-20 10:16:00,
2013-05-20 06:17:00,57.2,29.1,30.13,ESE,109,4.0,5.4,34,0.00,,---,0.00,VWS V14.00,2013-05-20 10:17:00,
2013-05-20 06:18:00,57.4,29.3,30.13,ESE,113,0.0,3.4,34,0.00,,---,0.00,VWS V14.00,2013-05-20 10:18:00,
2013-05-20 06:19:00,57.4,28.5,30.13,ESE,113,0.0,0.0,33,0.00,,---,0.00,VWS V14.00,2013-05-20 10:19:00,
2013-05-20 06:21:00,57.7,28.1,30.13,SE,138,5.4,5.4,32,0.00,,---,0.00,VWS V14.00,2013-05-20 10:21:00,
2013-05-20 06:22:00,57.7,27.3,30.13,East,83,4.7,5.4,31,0.00,,---,0.00,VWS V14.00,2013-05-20 10:22:00,
2013-05-20 06:23:00,57.9,26.7,30.13,ESE,112,4.0,4.0,30,0.00,,---,0.00,VWS V14.00,2013-05-20 10:23:00,
2013-05-20 06:24:00,57.9,26.7,30.13,ESE,108,5.4,5.4,30,0.00,,---,0.00,VWS V14.00,2013-05-20 10:24:00,
2013-05-20 06:26:00,58.1,26.0,30.13,ESE,120,4.7,4.7,29,0.00,,---,0.00,VWS V14.00,2013-05-20 10:26:00,
2013-05-20 06:28:00,58.1,26.0,30.13,ESE,115,4.0,7.4,29,0.00,,---,0.00,VWS V14.00,2013-05-20 10:28:00,
2013-05-20 06:29:00,58.1,26.0,30.13,East,97,4.0,4.0,29,0.00,,---,0.00,VWS V14.00,2013-05-20 10:29:00,
2013-05-20 06:31:00,58.1,26.0,30.13,ESE,109,4.0,4.0,29,0.00,,---,0.00,VWS V14.00,2013-05-20 10:31:00,
2013-05-20 06:33:00,58.1,26.9,30.13,ENE,58,3.4,4.0,30,0.00,,---,0.00,VWS V14.00,2013-05-20 10:33:00,
2013-05-20 06:34:00,58.1,26.9,30.13,ESE,118,4.0,4.0,30,0.00,,---,0.00,VWS V14.00,2013-05-20 10:34:00,
2013-05-20 06:36:00,58.1,27.6,30.13,East,79,4.0,4.0,31,0.00,,---,0.00,VWS V14.00,2013-05-20 10:36:00,
2013-05-20 06:38:00,58.1,27.6,30.10,East,99,3.4,4.0,31,0.00,,---,0.00,VWS V14.00,2013-05-20 10:38:00,
2013-05-20 06:39:00,58.1,27.6,30.10,ENE,76,4.0,4.0,31,0.00,,---,0.00,VWS V14.00,2013-05-20 10:39:00,
2013-05-20 06:41:00,58.1,29.2,30.10,ENE,74,5.4,5.4,33,0.00,,---,0.00,VWS V14.00,2013-05-20 10:41:00,
2013-05-20 06:43:00,58.3,30.1,30.10,ENE,63,4.0,4.0,34,0.00,,---,0.00,VWS V14.00,2013-05-20 10:43:00,
2013-05-20 06:44:00,58.3,30.1,30.10,ENE,73,3.4,4.0,34,0.00,,---,0.00,VWS V14.00,2013-05-20 10:44:00,
2013-05-20 06:46:00,58.5,30.9,30.10,East,85,4.7,6.0,35,0.00,,---,0.00,VWS V14.00,2013-05-20 10:46:00,
2013-05-20 06:48:00,58.6,31.1,30.10,East,93,4.7,4.7,35,0.00,,---,0.00,VWS V14.00,2013-05-20 10:48:00,
2013-05-20 06:49:00,58.6,31.1,30.10,East,93,4.0,4.0,35,0.00,,---,0.00,VWS V14.00,2013-05-20 10:49:00,
2013-05-20 06:51:00,58.6,30.4,30.10,ESE,105,6.0,6.0,34,0.00,,---,0.00,VWS V14.00,2013-05-20 10:51:00,
2013-05-20 06:52:00,58.6,30.4,30.10,ESE,105,4.7,6.0,34,0.00,,---,0.00,VWS V14.00,2013-05-20 10:52:00,
2013-05-20 06:53:00,58.6,30.4,30.07,East,90,5.4,5.4,34,0.00,,---,0.00,VWS V14.00,2013-05-20 10:53:00,
2013-05-20 06:54:00,58.6,30.4,30.07,East,98,5.4,5.4,34,0.00,,---,0.00,VWS V14.00,2013-05-20 10:54:00,
2013-05-20 06:56:00,58.6,30.4,30.07,ESE,102,6.0,6.0,34,0.00,,---,0.00,VWS V14.00,2013-05-20 10:56:00,
2013-05-20 06:57:00,58.6,30.4,30.07,ESE,102,6.0,6.0,34,0.00,,---,0.00,VWS V14.00,2013-05-20 10:57:00,
2013-05-20 06:58:00,58.6,30.4,30.07,East,82,4.0,4.0,34,0.00,,---,0.00,VWS V14.00,2013-05-20 10:58:00,
2013-05-20 06:59:00,58.6,30.4,30.07,ENE,72,5.4,5.4,34,0.00,,---,0.00,VWS V14.00,2013-05-20 10:59:00,
2013-05-20 07:02:00,58.5,30.2,30.07,ENE,64,8.1,8.1,34,0.00,,---,0.00,VWS V14.00,2013-05-20 11:02:00,
2013-05-20 07:03:00,58.5,30.2,30.07,ENE,74,5.4,8.1,34,0.00,,---,0.00,VWS V14.00,2013-05-20 11:03:00,
2013-05-20 07:04:00,58.5,30.2,30.07,ESE,104,7.4,7.4,34,0.00,,---,0.00,VWS V14.00,2013-05-20 11:04:00,
2013-05-20 07:07:00,58.5,30.2,30.07,ENE,75,5.4,7.4,34,0.00,,---,0.00,VWS V14.00,2013-05-20 11:07:00,
2013-05-20 07:08:00,58.5,30.2,30.04,East,97,4.0,5.4,34,0.00,,---,0.00,VWS V14.00,2013-05-20 11:08:00,
2013-05-20 07:09:00,58.5,30.2,30.04,East,100,3.4,4.0,34,0.00,,---,0.00,VWS V14.00,2013-05-20 11:09:00,
2013-05-20 07:10:00,58.5,30.2,30.04,ESE,109,0.0,4.0,34,0.00,,---,0.00,VWS V14.00,2013-05-20 11:10:00,
2013-05-20 07:12:00,58.5,30.9,30.04,NE,50,4.7,5.4,35,0.00,,---,0.00,VWS V14.00,2013-05-20 11:12:00,
2013-05-20 07:13:00,58.3,30.8,30.04,NE,47,6.0,6.0,35,0.00,,---,0.00,VWS V14.00,2013-05-20 11:13:00,
2013-05-20 07:14:00,58.3,30.8,30.04,NE,42,6.0,6.0,35,0.00,,---,0.00,VWS V14.00,2013-05-20 11:14:00,
2013-05-20 07:15:00,58.3,30.8,30.04,NE,37,4.7,7.4,35,0.00,,---,0.00,VWS V14.00,2013-05-20 11:15:00,
2013-05-20 07:17:00,58.1,30.6,30.04,ENE,62,6.0,6.0,35,0.00,,---,0.00,VWS V14.00,2013-05-20 11:17:00,
2013-05-20 07:18:00,58.1,30.6,30.04,NE,50,4.7,6.0,35,0.00,,---,0.00,VWS V14.00,2013-05-20 11:18:00,
2013-05-20 07:19:00,57.9,30.5,30.04,NE,41,6.7,6.7,35,0.00,,---,0.00,VWS V14.00,2013-05-20 11:19:00,
2013-05-20 07:20:00,57.9,30.5,30.04,ENE,62,4.0,6.7,35,0.00,,---,0.00,VWS V14.00,2013-05-20 11:20:00,
2013-05-20 07:22:00,57.6,30.1,30.04,ESE,115,5.4,5.4,35,0.00,,---,0.00,VWS V14.00,2013-05-20 11:22:00,
2013-05-20 07:23:00,57.6,30.1,30.07,ESE,109,4.7,5.4,35,0.00,,---,0.00,VWS V14.00,2013-05-20 11:23:00,
2013-05-20 07:24:00,57.4,30.0,30.07,East,95,6.0,7.4,35,0.00,,---,0.00,VWS V14.00,2013-05-20 11:24:00,
2013-05-20 07:25:00,57.4,30.0,30.07,ESE,112,8.1,8.1,35,0.00,,---,0.00,VWS V14.00,2013-05-20 11:25:00,
2013-05-20 07:27:00,57.2,29.8,30.07,ESE,111,7.4,7.4,35,0.00,,---,0.00,VWS V14.00,2013-05-20 11:27:00,
2013-05-20 07:28:00,57.4,30.0,30.07,East,92,4.0,5.4,35,0.00,,---,0.00,VWS V14.00,2013-05-20 11:28:00,
2013-05-20 07:29:00,57.4,30.0,30.07,NE,47,3.4,4.0,35,0.00,,---,0.00,VWS V14.00,2013-05-20 11:29:00,
2013-05-20 07:30:00,57.4,30.0,30.07,NE,47,0.0,0.0,35,0.00,,---,0.00,VWS V14.00,2013-05-20 11:30:00,
2013-05-20 07:32:00,57.9,31.1,30.07,SE,124,11.4,11.4,36,0.00,,---,0.00,VWS V14.00,2013-05-20 11:32:00,
2013-05-20 07:33:00,58.1,30.6,30.07,ESE,118,9.4,11.4,35,0.00,,---,0.00,VWS V14.00,2013-05-20 11:33:00,
2013-05-20 07:34:00,58.3,30.8,30.07,East,95,6.0,11.4,35,0.00,,---,0.00,VWS V14.00,2013-05-20 11:34:00,
2013-05-20 07:35:00,58.5,30.2,30.07,ESE,112,8.1,8.1,34,0.00,,---,0.00,VWS V14.00,2013-05-20 11:35:00,
2013-05-20 07:38:00,58.6,28.1,30.07,ESE,115,4.0,7.4,31,0.00,,---,0.00,VWS V14.00,2013-05-20 11:38:00,
2013-05-20 07:39:00,58.6,28.1,30.07,ESE,117,4.0,4.7,31,0.00,,---,0.00,VWS V14.00,2013-05-20 11:39:00,
2013-05-20 07:40:00,58.8,29.0,30.07,ESE,108,4.0,6.0,32,0.00,,---,0.00,VWS V14.00,2013-05-20 11:40:00,
2013-05-20 07:43:00,58.8,27.5,30.07,South,183,6.0,8.1,30,0.00,,---,0.00,VWS V14.00,2013-05-20 11:43:00,
2013-05-20 07:44:00,58.8,26.6,30.07,SSE,155,4.7,8.1,29,0.00,,---,0.00,VWS V14.00,2013-05-20 11:44:00,
2013-05-20 07:45:00,58.8,26.6,30.07,SE,136,4.7,4.7,29,0.00,,---,0.00,VWS V14.00,2013-05-20 11:45:00,
2013-05-20 07:48:00,58.6,26.5,30.07,ESE,120,6.0,8.1,29,0.00,,---,0.00,VWS V14.00,2013-05-20 11:48:00,
2013-05-20 07:49:00,58.5,26.3,30.07,SE,130,5.4,5.4,29,0.00,,---,0.00,VWS V14.00,2013-05-20 11:49:00,
2013-05-20 07:50:00,58.5,27.2,30.07,ESE,102,4.7,6.0,30,0.00,,---,0.00,VWS V14.00,2013-05-20 11:50:00,
2013-05-20 07:53:00,58.5,28.0,30.07,SE,133,6.0,7.4,31,0.00,,---,0.00,VWS V14.00,2013-05-20 11:53:00,
2013-05-20 07:54:00,58.5,28.0,30.07,East,98,4.7,4.7,31,0.00,,---,0.00,VWS V14.00,2013-05-20 11:54:00,
2013-05-20 07:56:00,58.5,28.0,30.07,ESE,110,4.7,5.4,31,0.00,,---,0.00,VWS V14.00,2013-05-20 11:56:00,
2013-05-20 07:58:00,58.8,28.3,30.07,ESE,110,0.0,0.0,31,0.00,,---,0.00,VWS V14.00,2013-05-20 11:58:00,
2013-05-20 07:59:00,59.0,28.4,30.07,East,98,4.0,4.0,31,0.00,,---,0.00,VWS V14.00,2013-05-20 11:59:00,
2013-05-20 08:01:00,59.4,25.4,30.07,ENE,66,4.0,4.0,27,0.00,,---,0.00,VWS V14.00,2013-05-20 12:01:00,
2013-05-20 08:03:00,59.4,24.5,30.07,East,81,4.7,4.7,26,0.00,,---,0.00,VWS V14.00,2013-05-20 12:03:00,
2013-05-20 08:04:00,59.4,25.4,30.07,ENE,68,4.7,4.7,27,0.00,,---,0.00,VWS V14.00,2013-05-20 12:04:00,
2013-05-20 08:05:00,59.2,25.2,30.07,ENE,62,4.0,5.4,27,0.00,,---,0.00,VWS V14.00,2013-05-20 12:05:00,
2013-05-20 08:06:00,59.2,25.2,30.07,ENE,74,4.0,6.0,27,0.00,,---,0.00,VWS V14.00,2013-05-20 12:06:00,
2013-05-20 08:08:00,58.8,25.8,30.07,ESE,116,6.0,6.0,28,0.00,,---,0.00,VWS V14.00,2013-05-20 12:08:00,
2013-05-20 08:09:00,58.8,25.8,30.07,East,97,5.4,5.4,28,0.00,,---,0.00,VWS V14.00,2013-05-20 12:09:00,
2013-05-20 08:10:00,58.8,25.8,30.07,East,98,4.0,6.0,28,0.00,,---,0.00,VWS V14.00,2013-05-20 12:10:00,
2013-05-20 08:11:00,58.5,27.2,30.07,East,91,4.0,6.0,30,0.00,,---,0.00,VWS V14.00,2013-05-20 12:11:00,
2013-05-20 08:13:00,58.5,28.0,30.07,East,99,4.7,6.0,31,0.00,,---,0.00,VWS V14.00,2013-05-20 12:13:00,
2013-05-20 08:14:00,58.5,28.7,30.07,East,92,4.0,4.0,32,0.00,,---,0.00,VWS V14.00,2013-05-20 12:14:00,
2013-05-20 08:15:00,58.3,28.6,30.07,ESE,103,4.0,4.7,32,0.00,,---,0.00,VWS V14.00,2013-05-20 12:15:00,
2013-05-20 08:16:00,58.5,29.5,30.07,SE,129,5.4,5.4,33,0.00,,---,0.00,VWS V14.00,2013-05-20 12:16:00,
2013-05-20 08:18:00,58.3,29.3,30.07,East,88,4.0,5.4,33,0.00,,---,0.00,VWS V14.00,2013-05-20 12:18:00,
2013-05-20 08:19:00,58.3,29.3,30.07,East,89,4.0,5.4,33,0.00,,---,0.00,VWS V14.00,2013-05-20 12:19:00,
2013-05-20 08:20:00,58.3,30.1,30.07,East,88,4.0,5.4,34,0.00,,---,0.00,VWS V14.00,2013-05-20 12:20:00,
2013-05-20 08:21:00,58.3,30.1,30.07,SE,128,4.7,4.7,34,0.00,,---,0.00,VWS V14.00,2013-05-20 12:21:00,
2013-05-20 08:24:00,58.3,30.8,30.07,ESE,116,4.7,5.4,35,0.00,,---,0.00,VWS V14.00,2013-05-20 12:24:00,
2013-05-20 08:25:00,58.3,30.1,30.07,SE,129,4.7,4.7,34,0.00,,---,0.00,VWS V14.00,2013-05-20 12:25:00,
2013-05-20 08:27:00,58.3,30.1,30.07,East,82,5.4,5.4,34,0.00,,---,0.00,VWS V14.00,2013-05-20 12:27:00,
2013-05-20 08:29:00,58.5,30.9,30.07,ENE,70,3.4,4.7,35,0.00,,---,0.00,VWS V14.00,2013-05-20 12:29:00,
2013-05-20 08:30:00,58.5,30.9,30.07,ENE,70,0.0,3.4,35,0.00,,---,0.00,VWS V14.00,2013-05-20 12:30:00,
2013-05-20 08:32:00,58.6,31.1,30.07,ENE,78,0.0,0.0,35,0.00,,---,0.00,VWS V14.00,2013-05-20 12:32:00,
2013-05-20 08:34:00,59.0,31.4,30.07,ESE,120,6.0,6.0,35,0.00,,---,0.00,VWS V14.00,2013-05-20 12:34:00,
2013-05-20 08:35:00,59.4,31.7,30.07,ESE,108,3.4,4.0,35,0.00,,---,0.00,VWS V14.00,2013-05-20 12:35:00,
2013-05-20 08:37:00,59.7,32.0,30.07,SE,133,5.4,6.0,35,0.00,,---,0.00,VWS V14.00,2013-05-20 12:37:00,
2013-05-20 08:39:00,60.3,30.3,30.07,SSE,150,4.0,4.0,32,0.00,,---,0.00,VWS V14.00,2013-05-20 12:39:00,
2013-05-20 08:40:00,60.4,29.7,30.07,SSE,150,4.0,4.0,31,0.00,,---,0.00,VWS V14.00,2013-05-20 12:40:00,
2013-05-20 08:43:00,61.0,27.7,30.07,SSE,160,4.0,6.0,28,0.00,,---,0.00,VWS V14.00,2013-05-20 12:43:00,
2013-05-20 08:44:00,61.2,26.9,30.07,SSE,151,4.7,4.7,27,0.00,,---,0.00,VWS V14.00,2013-05-20 12:44:00,
2013-05-20 08:45:00,61.5,27.2,30.07,SSE,155,4.0,5.4,27,0.00,,---,0.00,VWS V14.00,2013-05-20 12:45:00,
2013-05-20 08:48:00,61.9,26.6,30.07,SSE,151,4.0,4.0,26,0.00,,---,0.00,VWS V14.00,2013-05-20 12:48:00,
2013-05-20 08:49:00,61.9,26.6,30.07,ESE,123,6.0,6.0,26,0.00,,---,0.00,VWS V14.00,2013-05-20 12:49:00,
2013-05-20 08:50:00,61.7,26.5,30.07,SE,139,7.4,7.4,26,0.00,,---,0.00,VWS V14.00,2013-05-20 12:50:00,
2013-05-20 08:53:00,61.3,27.1,30.07,ESE,123,4.0,4.0,27,0.00,,---,0.00,VWS V14.00,2013-05-20 12:53:00,
2013-05-20 08:54:00,61.2,26.9,30.07,SE,135,4.7,7.4,27,0.00,,---,0.00,VWS V14.00,2013-05-20 12:54:00,
2013-05-20 08:55:00,61.2,26.9,30.07,ENE,69,4.0,7.4,27,0.00,,---,0.00,VWS V14.00,2013-05-20 12:55:00,
2013-05-20 08:56:00,61.3,27.1,30.07,SE,129,4.7,4.7,27,0.00,,---,0.00,VWS V14.00,2013-05-20 12:56:00,
2013-05-20 08:58:00,61.5,27.2,30.07,SE,143,6.0,6.0,27,0.00,,---,0.00,VWS V14.00,2013-05-20 12:58:00,
2013-05-20 08:59:00,61.5,26.3,30.07,SE,141,4.7,5.4,26,0.00,,---,0.00,VWS V14.00,2013-05-20 12:59:00,
2013-05-20 09:00:00,61.7,26.5,30.07,ESE,108,4.0,4.0,26,0.00,,---,0.00,VWS V14.00,2013-05-20 13:00:00,
2013-05-20 09:01:00,61.7,26.5,30.07,ESE,107,0.0,6.0,26,0.00,,---,0.00,VWS V14.00,2013-05-20 13:01:00,
2013-05-20 09:03:00,62.1,25.9,30.07,ESE,106,4.7,4.7,25,0.00,,---,0.00,VWS V14.00,2013-05-20 13:03:00,
2013-05-20 09:04:00,62.4,26.2,30.07,SE,130,4.0,4.7,25,0.00,,---,0.00,VWS V14.00,2013-05-20 13:04:00,
2013-05-20 09:05:00,62.8,26.5,30.07,ESE,119,4.0,4.0,25,0.00,,---,0.00,VWS V14.00,2013-05-20 13:05:00,
2013-05-20 09:06:00,62.8,25.5,30.07,SE,131,4.0,4.0,24,0.00,,---,0.00,VWS V14.00,2013-05-20 13:06:00,
2013-05-20 09:08:00,61.9,25.7,30.07,SSE,155,6.0,6.0,25,0.00,,---,0.00,VWS V14.00,2013-05-20 13:08:00,
2013-05-20 09:09:00,61.9,25.7,30.07,East,96,4.0,4.7,25,0.00,,---,0.00,VWS V14.00,2013-05-20 13:09:00,
2013-05-20 09:10:00,61.7,26.5,30.07,East,82,4.0,4.7,26,0.00,,---,0.00,VWS V14.00,2013-05-20 13:10:00,
2013-05-20 09:11:00,61.9,26.6,30.07,East,82,0.0,0.0,26,0.00,,---,0.00,VWS V14.00,2013-05-20 13:11:00,
2013-05-20 09:14:00,62.6,26.3,30.07,SE,128,4.0,4.7,25,0.00,,---,0.00,VWS V14.00,2013-05-20 13:14:00,
2013-05-20 09:15:00,63.5,26.1,30.07,ESE,107,4.0,4.7,24,0.00,,---,0.00,VWS V14.00,2013-05-20 13:15:00,
2013-05-20 09:16:00,63.7,26.2,30.07,ESE,102,4.0,5.4,24,0.00,,---,0.00,VWS V14.00,2013-05-20 13:16:00,
2013-05-20 09:19:00,65.7,26.9,30.07,SE,132,0.0,4.0,23,0.00,,---,0.00,VWS V14.00,2013-05-20 13:19:00,
2013-05-20 09:20:00,66.7,24.4,30.07,East,86,4.7,6.0,20,0.00,,---,0.00,VWS V14.00,2013-05-20 13:20:00,
2013-05-20 09:21:00,66.9,24.6,30.07,ESE,105,4.0,4.0,20,0.00,,---,0.00,VWS V14.00,2013-05-20 13:21:00,
2013-05-20 09:24:00,68.2,21.7,30.07,ESE,122,5.4,6.0,17,0.00,,---,0.00,VWS V14.00,2013-05-20 13:24:00,
2013-05-20 09:25:00,68.5,22.0,30.07,SE,140,4.0,5.4,17,0.00,,---,0.00,VWS V14.00,2013-05-20 13:25:00,
2013-05-20 09:26:00,68.7,22.2,30.07,SE,141,4.0,6.7,17,0.00,,---,0.00,VWS V14.00,2013-05-20 13:26:00,
2013-05-20 09:29:00,69.4,22.8,30.07,SE,137,4.0,5.4,17,0.00,,---,0.00,VWS V14.00,2013-05-20 13:29:00,
2013-05-20 09:30:00,69.4,22.8,30.07,ESE,102,4.0,4.0,17,0.00,,---,0.00,VWS V14.00,2013-05-20 13:30:00,
2013-05-20 09:31:00,69.3,22.6,30.07,SSE,162,7.4,8.1,17,0.00,,---,0.00,VWS V14.00,2013-05-20 13:31:00,
2013-05-20 09:32:00,69.4,22.8,30.07,SE,145,4.0,7.4,17,0.00,,---,0.00,VWS V14.00,2013-05-20 13:32:00,
2013-05-20 09:34:00,68.7,22.2,30.07,SSE,157,4.0,4.7,17,0.00,,---,0.00,VWS V14.00,2013-05-20 13:34:00,
2013-05-20 09:35:00,68.2,21.7,30.07,SSE,152,4.0,4.7,17,0.00,,---,0.00,VWS V14.00,2013-05-20 13:35:00,
2013-05-20 09:36:00,68.0,21.6,30.07,East,83,4.0,4.0,17,0.00,,---,0.00,VWS V14.00,2013-05-20 13:36:00,
2013-05-20 09:37:00,67.8,21.5,30.07,SSW,200,5.4,5.4,17,0.00,,---,0.00,VWS V14.00,2013-05-20 13:37:00,
2013-05-20 09:39:00,67.1,20.9,30.07,ENE,61,5.4,5.4,17,0.00,,---,0.00,VWS V14.00,2013-05-20 13:39:00,
2013-05-20 09:40:00,66.7,20.6,30.07,ESE,118,7.4,7.4,17,0.00,,---,0.00,VWS V14.00,2013-05-20 13:40:00,
2013-05-20 09:41:00,66.6,20.4,30.07,SE,146,9.4,9.4,17,0.00,,---,0.00,VWS V14.00,2013-05-20 13:41:00,
2013-05-20 09:42:00,66.0,23.8,30.07,ESE,114,5.4,5.4,20,0.00,,---,0.00,VWS V14.00,2013-05-20 13:42:00,
2013-05-20 09:44:00,66.0,23.8,30.07,SE,134,6.0,8.7,20,0.00,,---,0.00,VWS V14.00,2013-05-20 13:44:00,
2013-05-20 09:45:00,65.7,23.5,30.07,SE,137,9.4,9.4,20,0.00,,---,0.00,VWS V14.00,2013-05-20 13:45:00,
2013-05-20 09:46:00,65.5,23.4,30.07,SE,125,6.0,6.0,20,0.00,,---,0.00,VWS V14.00,2013-05-20 13:46:00,
2013-05-20 09:47:00,65.5,23.4,30.07,ESE,120,11.4,11.4,20,0.00,,---,0.00,VWS V14.00,2013-05-20 13:47:00,
2013-05-20 09:49:00,64.9,26.3,30.07,SE,136,4.7,6.0,23,0.00,,---,0.00,VWS V14.00,2013-05-20 13:49:00,
2013-05-20 09:50:00,64.9,26.3,30.07,SE,145,5.4,5.4,23,0.00,,---,0.00,VWS V14.00,2013-05-20 13:50:00,
2013-05-20 09:51:00,64.8,26.1,30.07,ESE,113,8.1,8.1,23,0.00,,---,0.00,VWS V14.00,2013-05-20 13:51:00,
2013-05-20 09:52:00,64.8,26.1,30.07,SSE,160,8.1,8.1,23,0.00,,---,0.00,VWS V14.00,2013-05-20 13:52:00,
2013-05-20 09:54:00,64.8,26.1,30.07,SSE,158,8.1,8.1,23,0.00,,---,0.00,VWS V14.00,2013-05-20 13:54:00,
2013-05-20 09:55:00,64.8,26.1,30.07,SSE,154,6.0,8.7,23,0.00,,---,0.00,VWS V14.00,2013-05-20 13:55:00,
2013-05-20 09:56:00,64.6,26.0,30.07,SE,141,6.0,8.1,23,0.00,,---,0.00,VWS V14.00,2013-05-20 13:56:00,
2013-05-20 09:57:00,64.6,26.0,30.07,SE,146,4.7,8.1,23,0.00,,---,0.00,VWS V14.00,2013-05-20 13:57:00,
2013-05-20 09:59:00,64.4,25.8,30.07,SSE,151,8.1,9.4,23,0.00,,---,0.00,VWS V14.00,2013-05-20 13:59:00,
2013-05-20 10:00:00,64.4,25.8,30.07,SE,129,9.4,11.4,23,0.00,,---,0.00,VWS V14.00,2013-05-20 14:00:00,
2013-05-20 10:01:00,64.4,25.8,30.07,SE,138,4.0,8.1,23,0.00,,---,0.00,VWS V14.00,2013-05-20 14:01:00,
2013-05-20 10:02:00,64.4,25.8,30.07,ESE,120,12.1,12.1,23,0.00,,---,0.00,VWS V14.00,2013-05-20 14:02:00,
2013-05-20 10:04:00,64.2,26.7,30.07,SSE,147,12.1,12.1,24,0.00,,---,0.00,VWS V14.00,2013-05-20 14:04:00,
2013-05-20 10:05:00,64.2,26.7,30.07,ESE,112,7.4,8.1,24,0.00,,---,0.00,VWS V14.00,2013-05-20 14:05:00,
2013-05-20 10:06:00,64.2,26.7,30.07,SSE,154,5.4,6.0,24,0.00,,---,0.00,VWS V14.00,2013-05-20 14:06:00,
2013-05-20 10:07:00,64.2,26.7,30.10,SE,126,4.7,4.7,24,0.00,,---,0.00,VWS V14.00,2013-05-20 14:07:00,
2013-05-20 10:09:00,64.2,26.7,30.10,SSE,162,12.1,12.4,24,0.00,,---,0.00,VWS V14.00,2013-05-20 14:09:00,
2013-05-20 10:10:00,64.2,26.7,30.10,SE,125,8.7,9.4,24,0.00,,---,0.00,VWS V14.00,2013-05-20 14:10:00,
2013-05-20 10:11:00,64.0,26.5,30.10,SE,143,8.1,8.7,24,0.00,,---,0.00,VWS V14.00,2013-05-20 14:11:00,
2013-05-20 10:13:00,64.0,26.5,30.10,SE,142,8.1,12.1,24,0.00,,---,0.00,VWS V14.00,2013-05-20 14:13:00,
2013-05-20 10:14:00,64.0,26.5,30.10,ESE,117,8.7,8.7,24,0.00,,---,0.00,VWS V14.00,2013-05-20 14:14:00,
2013-05-20 10:16:00,64.2,26.7,30.10,SE,133,9.4,9.4,24,0.00,,---,0.00,VWS V14.00,2013-05-20 14:16:00,
2013-05-20 10:17:00,64.2,26.7,30.10,South,177,5.4,8.1,24,0.00,,---,0.00,VWS V14.00,2013-05-20 14:17:00,
2013-05-20 10:18:00,64.2,26.7,30.10,SE,143,8.1,8.1,24,0.00,,---,0.00,VWS V14.00,2013-05-20 14:18:00,
2013-05-20 10:19:00,64.2,26.7,30.10,SSE,162,5.4,8.1,24,0.00,,---,0.00,VWS V14.00,2013-05-20 14:19:00,
2013-05-20 10:21:00,64.2,26.7,30.10,SE,142,8.7,9.4,24,0.00,,---,0.00,VWS V14.00,2013-05-20 14:21:00,
2013-05-20 10:22:00,64.2,26.7,30.10,ESE,123,12.1,12.1,24,0.00,,---,0.00,VWS V14.00,2013-05-20 14:22:00,
2013-05-20 10:23:00,64.2,26.7,30.10,SE,143,7.4,12.1,24,0.00,,---,0.00,VWS V14.00,2013-05-20 14:23:00,
2013-05-20 10:24:00,64.0,26.5,30.10,SE,124,8.7,11.4,24,0.00,,---,0.00,VWS V14.00,2013-05-20 14:24:00,
2013-05-20 10:26:00,64.0,26.5,30.10,SE,138,8.7,15.1,24,0.00,,---,0.00,VWS V14.00,2013-05-20 14:26:00,
2013-05-20 10:28:00,64.0,26.5,30.10,SSE,153,9.4,12.1,24,0.00,,---,0.00,VWS V14.00,2013-05-20 14:28:00,
2013-05-20 10:29:00,63.9,26.4,30.10,SSE,152,12.4,12.4,24,0.00,,---,0.00,VWS V14.00,2013-05-20 14:29:00,
2013-05-20 10:31:00,63.7,27.2,30.10,SE,128,6.0,8.7,25,0.00,,---,0.00,VWS V14.00,2013-05-20 14:31:00,
2013-05-20 10:33:00,63.5,28.0,30.10,SSE,151,8.7,8.7,26,0.00,,---,0.00,VWS V14.00,2013-05-20 14:33:00,
2013-05-20 10:34:00,63.7,28.2,30.10,SE,138,8.1,8.7,26,0.00,,---,0.00,VWS V14.00,2013-05-20 14:34:00,
2013-05-20 10:35:00,63.7,28.2,30.10,SSE,167,6.0,8.1,26,0.00,,---,0.00,VWS V14.00,2013-05-20 14:35:00,
2013-05-20 10:36:00,63.7,28.2,30.10,SE,139,10.7,10.7,26,0.00,,---,0.00,VWS V14.00,2013-05-20 14:36:00,
2013-05-20 10:38:00,64.0,28.5,30.10,SE,126,5.4,8.1,26,0.00,,---,0.00,VWS V14.00,2013-05-20 14:38:00,
2013-05-20 10:39:00,64.0,28.5,30.10,SE,124,4.0,8.1,26,0.00,,---,0.00,VWS V14.00,2013-05-20 14:39:00,
2013-05-20 10:40:00,64.4,27.8,30.10,NNE,32,8.1,8.1,25,0.00,,---,0.00,VWS V14.00,2013-05-20 14:40:00,
2013-05-20 10:41:00,64.4,27.8,30.10,ESE,106,10.1,10.1,25,0.00,,---,0.00,VWS V14.00,2013-05-20 14:41:00,
2013-05-20 10:43:00,64.6,28.0,30.10,SSE,157,6.0,6.0,25,0.00,,---,0.00,VWS V14.00,2013-05-20 14:43:00,
2013-05-20 10:44:00,64.6,27.0,30.10,SE,132,5.4,5.4,24,0.00,,---,0.00,VWS V14.00,2013-05-20 14:44:00,
2013-05-20 10:45:00,64.4,26.9,30.10,SE,135,10.1,10.1,24,0.00,,---,0.00,VWS V14.00,2013-05-20 14:45:00,
2013-05-20 10:46:00,64.4,27.8,30.10,SSE,161,12.4,12.4,25,0.00,,---,0.00,VWS V14.00,2013-05-20 14:46:00,
2013-05-20 10:48:00,64.4,27.8,30.10,ESE,116,8.7,8.7,25,0.00,,---,0.00,VWS V14.00,2013-05-20 14:48:00,
2013-05-20 10:49:00,64.4,27.8,30.10,SE,124,8.1,8.1,25,0.00,,---,0.00,VWS V14.00,2013-05-20 14:49:00,
2013-05-20 10:50:00,64.2,27.7,30.10,SSE,153,11.4,11.4,25,0.00,,---,0.00,VWS V14.00,2013-05-20 14:50:00,
2013-05-20 10:51:00,64.2,28.6,30.10,SE,129,6.0,6.0,26,0.00,,---,0.00,VWS V14.00,2013-05-20 14:51:00,
2013-05-20 10:54:00,63.9,28.3,30.10,SSE,167,8.1,8.7,26,0.00,,---,0.00,VWS V14.00,2013-05-20 14:54:00,
2013-05-20 10:55:00,63.9,28.3,30.10,SE,144,4.7,9.4,26,0.00,,---,0.00,VWS V14.00,2013-05-20 14:55:00,
2013-05-20 10:56:00,64.2,28.6,30.10,SSE,154,3.4,6.0,26,0.00,,---,0.00,VWS V14.00,2013-05-20 14:56:00,
2013-05-20 10:59:00,64.4,27.8,30.10,ESE,116,12.4,13.1,25,0.00,,---,0.00,VWS V14.00,2013-05-20 14:59:00,
2013-05-20 11:00:00,64.2,28.6,30.10,SSE,151,8.1,12.4,26,0.00,,---,0.00,VWS V14.00,2013-05-20 15:00:00,
2013-05-20 11:01:00,64.2,28.6,30.10,SE,142,9.4,9.4,26,0.00,,---,0.00,VWS V14.00,2013-05-20 15:01:00,
2013-05-20 11:04:00,64.2,28.6,30.10,SE,133,7.4,8.1,26,0.00,,---,0.00,VWS V14.00,2013-05-20 15:04:00,
2013-05-20 11:05:00,64.2,28.6,30.10,ESE,118,8.1,8.1,26,0.00,,---,0.00,VWS V14.00,2013-05-20 15:05:00,
2013-05-20 11:06:00,64.2,28.6,30.10,SSE,147,5.4,9.4,26,0.00,,---,0.00,VWS V14.00,2013-05-20 15:06:00,
2013-05-20 11:09:00,64.0,28.5,30.10,South,170,10.7,10.7,26,0.00,,---,0.00,VWS V14.00,2013-05-20 15:09:00,
2013-05-20 11:10:00,63.9,28.3,30.10,SSE,153,8.1,13.1,26,0.00,,---,0.00,VWS V14.00,2013-05-20 15:10:00,
2013-05-20 11:11:00,63.9,29.3,30.10,SSE,168,8.1,8.1,27,0.00,,---,0.00,VWS V14.00,2013-05-20 15:11:00,
2013-05-20 11:14:00,64.0,29.4,30.10,SSE,153,6.0,7.4,27,0.00,,---,0.00,VWS V14.00,2013-05-20 15:14:00,
2013-05-20 11:15:00,64.0,28.5,30.10,ESE,116,4.7,4.7,26,0.00,,---,0.00,VWS V14.00,2013-05-20 15:15:00,
2013-05-20 11:16:00,64.2,28.6,30.10,SSE,164,6.0,8.1,26,0.00,,---,0.00,VWS V14.00,2013-05-20 15:16:00,
2013-05-20 11:19:00,64.4,27.8,30.10,ESE,115,9.4,9.4,25,0.00,,---,0.00,VWS V14.00,2013-05-20 15:19:00,
2013-05-20 11:20:00,64.2,28.6,30.10,ESE,108,11.4,11.4,26,0.00,,---,0.00,VWS V14.00,2013-05-20 15:20:00,
2013-05-20 11:22:00,64.2,27.7,30.10,SE,132,9.4,12.1,25,0.00,,---,0.00,VWS V14.00,2013-05-20 15:22:00,
2013-05-20 11:24:00,63.9,28.3,30.10,SSE,159,12.1,12.1,26,0.00,,---,0.00,VWS V14.00,2013-05-20 15:24:00,
2013-05-20 11:25:00,63.9,28.3,30.10,SE,131,9.4,12.1,26,0.00,,---,0.00,VWS V14.00,2013-05-20 15:25:00,
2013-05-20 11:27:00,63.9,28.3,30.10,South,175,8.7,8.7,26,0.00,,---,0.00,VWS V14.00,2013-05-20 15:27:00,
2013-05-20 11:29:00,63.7,29.1,30.10,SE,124,9.4,12.4,27,0.00,,---,0.00,VWS V14.00,2013-05-20 15:29:00,
2013-05-20 11:30:00,63.7,28.2,30.10,SSE,151,10.7,11.4,26,0.00,,---,0.00,VWS V14.00,2013-05-20 15:30:00,
2013-05-20 11:32:00,63.7,28.2,30.10,SE,137,8.1,8.7,26,0.00,,---,0.00,VWS V14.00,2013-05-20 15:32:00,
2013-05-20 11:34:00,63.5,29.0,30.10,SE,135,5.4,5.4,27,0.00,,---,0.00,VWS V14.00,2013-05-20 15:34:00,
2013-05-20 11:35:00,63.5,29.0,30.10,SSE,150,4.7,4.7,27,0.00,,---,0.00,VWS V14.00,2013-05-20 15:35:00,
2013-05-20 11:37:00,63.5,29.0,30.10,South,187,5.4,6.0,27,0.00,,---,0.00,VWS V14.00,2013-05-20 15:37:00,
2013-05-20 11:39:00,63.5,29.0,30.10,SE,124,6.0,9.4,27,0.00,,---,0.00,VWS V14.00,2013-05-20 15:39:00,
2013-05-20 11:40:00,63.5,29.8,30.10,South,178,6.0,6.0,28,0.00,,---,0.00,VWS V14.00,2013-05-20 15:40:00,
2013-05-20 11:41:00,63.5,29.8,30.10,ESE,123,4.0,6.0,28,0.00,,---,0.00,VWS V14.00,2013-05-20 15:41:00,
2013-05-20 11:43:00,63.5,29.8,30.10,SSE,150,6.0,8.1,28,0.00,,---,0.00,VWS V14.00,2013-05-20 15:43:00,
2013-05-20 11:44:00,63.5,29.8,30.10,South,182,8.7,8.7,28,0.00,,---,0.00,VWS V14.00,2013-05-20 15:44:00,
2013-05-20 11:45:00,63.5,29.8,30.10,SSE,157,8.1,8.7,28,0.00,,---,0.00,VWS V14.00,2013-05-20 15:45:00,
2013-05-20 11:46:00,63.5,29.8,30.10,SSE,152,4.0,8.7,28,0.00,,---,0.00,VWS V14.00,2013-05-20 15:46:00,
2013-05-20 11:49:00,63.3,30.5,30.10,SE,127,7.4,10.1,29,0.00,,---,0.00,VWS V14.00,2013-05-20 15:49:00,
2013-05-20 11:50:00,63.3,31.4,30.10,SE,133,4.7,7.4,30,0.00,,---,0.00,VWS V14.00,2013-05-20 15:50:00,
2013-05-20 11:51:00,63.3,31.4,30.10,SE,133,4.0,7.4,30,0.00,,---,0.00,VWS V14.00,2013-05-20 15:51:00,
2013-05-20 11:54:00,63.5,30.7,30.10,SSE,147,4.0,6.0,29,0.00,,---,0.00,VWS V14.00,2013-05-20 15:54:00,
2013-05-20 11:55:00,63.5,30.7,30.10,SSE,147,4.0,5.4,29,0.00,,---,0.00,VWS V14.00,2013-05-20 15:55:00,
2013-05-20 11:56:00,63.5,29.8,30.10,SE,132,6.0,6.0,28,0.00,,---,0.00,VWS V14.00,2013-05-20 15:56:00,
2013-05-20 11:59:00,63.5,30.7,30.10,ESE,119,8.1,8.1,29,0.00,,---,0.00,VWS V14.00,2013-05-20 15:59:00,
2013-05-20 12:00:00,63.5,30.7,30.10,SE,136,4.7,6.0,29,0.00,,---,0.00,VWS V14.00,2013-05-20 16:00:00,
2013-05-20 12:01:00,63.5,30.7,30.10,SE,135,5.4,6.0,29,0.00,,---,0.00,VWS V14.00,2013-05-20 16:01:00,
2013-05-20 12:04:00,63.3,30.5,30.10,SSE,166,5.4,7.4,29,0.00,,---,0.00,VWS V14.00,2013-05-20 16:04:00,
2013-05-20 12:05:00,63.5,31.5,30.10,ESE,111,7.4,8.1,30,0.00,,---,0.00,VWS V14.00,2013-05-20 16:05:00,
2013-05-20 12:06:00,63.5,31.5,30.10,SE,146,4.7,8.1,30,0.00,,---,0.00,VWS V14.00,2013-05-20 16:06:00,
2013-05-20 12:09:00,63.3,30.5,30.10,ESE,108,7.4,7.4,29,0.00,,---,0.00,VWS V14.00,2013-05-20 16:09:00,
2013-05-20 12:10:00,63.5,31.5,30.10,SE,139,4.0,6.0,30,0.00,,---,0.00,VWS V14.00,2013-05-20 16:10:00,
2013-05-20 12:11:00,63.5,31.5,30.10,SE,140,4.0,4.0,30,0.00,,---,0.00,VWS V14.00,2013-05-20 16:11:00,
2013-05-20 12:14:00,63.9,30.1,30.10,SSE,163,6.0,6.0,28,0.00,,---,0.00,VWS V14.00,2013-05-20 16:14:00,
2013-05-20 12:15:00,63.9,30.1,30.10,ESE,105,4.7,6.0,28,0.00,,---,0.00,VWS V14.00,2013-05-20 16:15:00,
2013-05-20 12:16:00,63.7,30.0,30.10,SE,130,5.4,6.0,28,0.00,,---,0.00,VWS V14.00,2013-05-20 16:16:00,
2013-05-20 12:20:00,63.7,30.0,30.10,SSE,167,7.4,7.4,28,0.00,,---,0.00,VWS V14.00,2013-05-20 16:20:00,
2013-05-20 12:21:00,63.7,31.7,30.10,SSE,162,4.0,4.0,30,0.00,,---,0.00,VWS V14.00,2013-05-20 16:21:00,
2013-05-20 12:25:00,63.7,30.9,30.10,ESE,110,3.4,5.4,29,0.00,,---,0.00,VWS V14.00,2013-05-20 16:25:00,
2013-05-20 12:26:00,63.7,30.9,30.10,ESE,123,6.0,6.0,29,0.00,,---,0.00,VWS V14.00,2013-05-20 16:26:00,
2013-05-20 12:30:00,63.3,32.2,30.10,SE,137,4.7,10.1,31,0.00,,---,0.00,VWS V14.00,2013-05-20 16:30:00,
2013-05-20 12:31:00,63.5,32.3,30.10,South,180,4.7,8.7,31,0.00,,---,0.00,VWS V14.00,2013-05-20 16:31:00,
2013-05-20 12:35:00,63.3,33.0,30.10,ESE,103,8.1,8.1,32,0.00,,---,0.00,VWS V14.00,2013-05-20 16:35:00,
2013-05-20 12:36:00,63.3,33.8,30.10,East,88,5.4,6.0,33,0.00,,---,0.00,VWS V14.00,2013-05-20 16:36:00,
2013-05-20 12:40:00,63.1,33.6,30.10,SE,142,7.4,8.1,33,0.00,,---,0.00,VWS V14.00,2013-05-20 16:40:00,
2013-05-20 12:41:00,63.1,34.3,30.10,East,100,4.0,7.4,34,0.00,,---,0.00,VWS V14.00,2013-05-20 16:41:00,
2013-05-20 12:42:00,63.1,34.3,30.10,SE,142,4.0,5.4,34,0.00,,---,0.00,VWS V14.00,2013-05-20 16:42:00,
2013-05-20 12:45:00,63.1,34.3,30.10,SE,128,4.7,5.4,34,0.00,,---,0.00,VWS V14.00,2013-05-20 16:45:00,
2013-05-20 12:46:00,63.1,34.3,30.10,SE,137,8.7,8.7,34,0.00,,---,0.00,VWS V14.00,2013-05-20 16:46:00,
2013-05-20 12:47:00,63.0,34.2,30.10,ESE,103,8.1,9.4,34,0.00,,---,0.00,VWS V14.00,2013-05-20 16:47:00,
2013-05-20 12:50:00,63.3,34.5,30.10,SE,125,6.0,6.0,34,0.00,,---,0.00,VWS V14.00,2013-05-20 16:50:00,
2013-05-20 12:51:00,63.3,34.5,30.10,SE,129,12.1,12.1,34,0.00,,---,0.00,VWS V14.00,2013-05-20 16:51:00,
2013-05-20 12:52:00,63.1,34.3,30.10,ESE,104,9.4,12.1,34,0.00,,---,0.00,VWS V14.00,2013-05-20 16:52:00,
2013-05-20 12:55:00,63.1,35.1,30.07,SE,124,6.0,6.0,35,0.00,,---,0.00,VWS V14.00,2013-05-20 16:55:00,
2013-05-20 12:57:00,63.1,34.3,30.07,ESE,111,8.1,9.4,34,0.00,,---,0.00,VWS V14.00,2013-05-20 16:57:00,
2013-05-20 13:00:00,63.1,34.3,30.07,SSE,165,6.0,6.0,34,0.00,,---,0.00,VWS V14.00,2013-05-20 17:00:00,
2013-05-20 13:02:00,63.3,34.5,30.07,SE,145,6.0,8.7,34,0.00,,---,0.00,VWS V14.00,2013-05-20 17:02:00,
2013-05-20 13:03:00,63.3,35.2,30.07,SE,137,5.4,5.4,35,0.00,,---,0.00,VWS V14.00,2013-05-20 17:03:00,
2013-05-20 13:05:00,63.3,34.5,30.07,SE,140,5.4,5.4,34,0.00,,---,0.00,VWS V14.00,2013-05-20 17:05:00,
2013-05-20 13:06:00,63.5,35.4,30.07,SE,131,3.4,5.4,35,0.00,,---,0.00,VWS V14.00,2013-05-20 17:06:00,
2013-05-20 13:07:00,63.5,34.7,30.07,SE,136,8.1,8.1,34,0.00,,---,0.00,VWS V14.00,2013-05-20 17:07:00,
2013-05-20 13:08:00,63.5,34.7,30.07,SSE,159,8.1,8.1,34,0.00,,---,0.00,VWS V14.00,2013-05-20 17:08:00,
2013-05-20 13:11:00,63.5,34.7,30.07,SE,135,4.7,9.4,34,0.00,,---,0.00,VWS V14.00,2013-05-20 17:11:00,
2013-05-20 13:12:00,63.7,34.8,30.07,SE,124,8.7,8.7,34,0.00,,---,0.00,VWS V14.00,2013-05-20 17:12:00,
2013-05-20 13:13:00,63.5,34.7,30.07,SE,131,8.7,8.7,34,0.00,,---,0.00,VWS V14.00,2013-05-20 17:13:00,
2013-05-20 13:16:00,63.5,34.7,30.07,South,175,5.4,5.4,34,0.00,,---,0.00,VWS V14.00,2013-05-20 17:16:00,
2013-05-20 13:17:00,63.7,34.8,30.07,South,182,5.4,5.4,34,0.00,,---,0.00,VWS V14.00,2013-05-20 17:17:00,
2013-05-20 13:18:00,63.9,35.0,30.07,South,188,4.0,5.4,34,0.00,,---,0.00,VWS V14.00,2013-05-20 17:18:00,
2013-05-20 13:19:00,63.9,35.0,30.07,SE,145,0.0,4.7,34,0.00,,---,0.00,VWS V14.00,2013-05-20 17:19:00,
2013-05-20 13:21:00,64.0,35.1,30.07,SE,145,3.4,3.4,34,0.00,,---,0.00,VWS V14.00,2013-05-20 17:21:00,
2013-05-20 13:22:00,63.9,34.2,30.07,East,99,4.0,4.0,33,0.00,,---,0.00,VWS V14.00,2013-05-20 17:22:00,
2013-05-20 13:23:00,63.9,34.2,30.07,East,99,3.4,3.4,33,0.00,,---,0.00,VWS V14.00,2013-05-20 17:23:00,
2013-05-20 13:24:00,63.9,34.2,30.07,East,95,4.0,5.4,33,0.00,,---,0.00,VWS V14.00,2013-05-20 17:24:00,
2013-05-20 13:26:00,63.5,34.7,30.07,East,98,4.0,4.0,34,0.00,,---,0.00,VWS V14.00,2013-05-20 17:26:00,
2013-05-20 13:27:00,63.5,34.7,30.07,ENE,73,4.7,4.7,34,0.00,,---,0.00,VWS V14.00,2013-05-20 17:27:00,
2013-05-20 13:28:00,63.3,34.5,30.07,ESE,114,4.0,4.7,34,0.00,,---,0.00,VWS V14.00,2013-05-20 17:28:00,
2013-05-20 13:29:00,63.5,34.7,30.07,SSE,168,3.4,5.4,34,0.00,,---,0.00,VWS V14.00,2013-05-20 17:29:00,
2013-05-20 13:31:00,63.5,34.7,30.07,South,170,4.7,6.0,34,0.00,,---,0.00,VWS V14.00,2013-05-20 17:31:00,
2013-05-20 13:32:00,63.5,34.7,30.07,SSE,153,0.0,3.4,34,0.00,,---,0.00,VWS V14.00,2013-05-20 17:32:00,
2013-05-20 13:33:00,63.5,35.4,30.07,SSE,152,0.0,3.4,35,0.00,,---,0.00,VWS V14.00,2013-05-20 17:33:00,
2013-05-20 13:34:00,63.7,35.5,30.07,SSE,163,4.7,4.7,35,0.00,,---,0.00,VWS V14.00,2013-05-20 17:34:00,
2013-05-20 13:36:00,63.7,34.8,30.07,ESE,110,3.4,4.0,34,0.00,,---,0.00,VWS V14.00,2013-05-20 17:36:00,
2013-05-20 13:37:00,63.5,34.7,30.07,ESE,107,4.0,5.4,34,0.00,,---,0.00,VWS V14.00,2013-05-20 17:37:00,
2013-05-20 13:38:00,63.5,34.7,30.07,SSE,164,6.0,6.0,34,0.00,,---,0.00,VWS V14.00,2013-05-20 17:38:00,
2013-05-20 13:39:00,63.5,34.7,30.07,SSE,160,3.4,6.0,34,0.00,,---,0.00,VWS V14.00,2013-05-20 17:39:00,
2013-05-20 13:41:00,63.1,34.3,30.07,ENE,78,0.0,4.7,34,0.00,,---,0.00,VWS V14.00,2013-05-20 17:41:00,
2013-05-20 13:42:00,63.1,34.3,30.07,ESE,118,4.7,4.7,34,0.00,,---,0.00,VWS V14.00,2013-05-20 17:42:00,
2013-05-20 13:43:00,63.0,34.9,30.07,SE,124,4.0,4.7,35,0.00,,---,0.00,VWS V14.00,2013-05-20 17:43:00,
2013-05-20 13:44:00,63.1,35.1,30.07,SE,130,0.0,0.0,35,0.00,,---,0.00,VWS V14.00,2013-05-20 17:44:00,
2013-05-20 13:47:00,63.1,35.1,30.07,ESE,108,4.0,5.4,35,0.00,,---,0.00,VWS V14.00,2013-05-20 17:47:00,
2013-05-20 13:48:00,63.0,34.9,30.07,SSW,193,5.4,7.4,35,0.00,,---,0.00,VWS V14.00,2013-05-20 17:48:00,
2013-05-20 13:49:00,63.0,35.6,30.07,SSE,151,4.7,4.7,36,0.00,,---,0.00,VWS V14.00,2013-05-20 17:49:00,
2013-05-20 13:52:00,63.0,35.6,30.07,SE,141,6.0,6.0,36,0.00,,---,0.00,VWS V14.00,2013-05-20 17:52:00,
2013-05-20 13:53:00,62.8,35.5,30.07,SSE,157,7.4,7.4,36,0.00,,---,0.00,VWS V14.00,2013-05-20 17:53:00,
2013-05-20 13:54:00,62.8,35.5,30.07,SE,140,4.0,4.0,36,0.00,,---,0.00,VWS V14.00,2013-05-20 17:54:00,
2013-05-20 13:57:00,62.6,35.3,30.07,ESE,102,4.0,4.7,36,0.00,,---,0.00,VWS V14.00,2013-05-20 17:57:00,
2013-05-20 13:58:00,62.6,36.0,30.07,ESE,114,5.4,5.4,37,0.00,,---,0.00,VWS V14.00,2013-05-20 17:58:00,
2013-05-20 13:59:00,62.6,36.0,30.07,ESE,116,6.0,6.0,37,0.00,,---,0.00,VWS V14.00,2013-05-20 17:59:00,
2013-05-20 14:02:00,62.4,35.8,30.07,SSE,162,5.4,6.0,37,0.00,,---,0.00,VWS V14.00,2013-05-20 18:02:00,
2013-05-20 14:04:00,62.2,35.7,30.07,ESE,119,6.0,8.7,37,0.00,,---,0.00,VWS V14.00,2013-05-20 18:04:00,
2013-05-20 14:05:00,62.2,36.3,30.07,ESE,103,4.7,8.1,38,0.00,,---,0.00,VWS V14.00,2013-05-20 18:05:00,
2013-05-20 14:07:00,62.4,36.5,30.07,SE,133,4.0,4.0,38,0.00,,---,0.00,VWS V14.00,2013-05-20 18:07:00,
2013-05-20 14:08:00,62.4,36.5,30.07,SE,133,4.0,4.0,38,0.00,,---,0.00,VWS V14.00,2013-05-20 18:08:00,
2013-05-20 14:09:00,62.6,36.7,30.07,SE,132,4.0,6.0,38,0.00,,---,0.00,VWS V14.00,2013-05-20 18:09:00,
2013-05-20 14:10:00,62.8,36.2,30.07,East,94,4.7,6.0,37,0.00,,---,0.00,VWS V14.00,2013-05-20 18:10:00,
2013-05-20 14:12:00,63.3,35.2,30.07,SE,135,4.0,8.7,35,0.00,,---,0.00,VWS V14.00,2013-05-20 18:12:00,
2013-05-20 14:13:00,63.3,35.2,30.07,SE,135,5.4,8.7,35,0.00,,---,0.00,VWS V14.00,2013-05-20 18:13:00,
2013-05-20 14:14:00,63.5,34.7,30.07,ESE,108,7.4,7.4,34,0.00,,---,0.00,VWS V14.00,2013-05-20 18:14:00,
2013-05-20 14:15:00,63.7,34.8,30.07,ESE,108,3.4,3.4,34,0.00,,---,0.00,VWS V14.00,2013-05-20 18:15:00,
2013-05-20 14:17:00,64.4,33.9,30.07,SSE,164,6.0,7.4,32,0.00,,---,0.00,VWS V14.00,2013-05-20 18:17:00,
2013-05-20 14:18:00,64.4,33.9,30.07,ESE,116,7.4,8.7,32,0.00,,---,0.00,VWS V14.00,2013-05-20 18:18:00,
2013-05-20 14:19:00,64.4,31.5,30.07,SSE,151,4.0,7.4,29,0.00,,---,0.00,VWS V14.00,2013-05-20 18:19:00,
2013-05-20 14:20:00,64.0,32.0,30.07,ESE,117,7.4,9.4,30,0.00,,---,0.00,VWS V14.00,2013-05-20 18:20:00,
2013-05-20 14:23:00,63.9,33.5,30.07,East,85,4.0,6.0,32,0.00,,---,0.00,VWS V14.00,2013-05-20 18:23:00,
2013-05-20 14:24:00,63.9,33.5,30.07,SE,128,10.1,10.1,32,0.00,,---,0.00,VWS V14.00,2013-05-20 18:24:00,
2013-05-20 14:26:00,63.9,34.2,30.07,SE,146,8.7,8.7,33,0.00,,---,0.00,VWS V14.00,2013-05-20 18:26:00,
2013-05-20 14:28:00,63.9,34.2,30.07,ESE,122,8.1,8.1,33,0.00,,---,0.00,VWS V14.00,2013-05-20 18:28:00,
2013-05-20 14:29:00,63.9,34.2,30.07,ESE,113,5.4,8.1,33,0.00,,---,0.00,VWS V14.00,2013-05-20 18:29:00,
2013-05-20 14:31:00,64.0,33.6,30.07,ESE,109,6.0,6.0,32,0.00,,---,0.00,VWS V14.00,2013-05-20 18:31:00,
2013-05-20 14:33:00,63.9,33.5,30.07,SSE,156,6.0,8.7,32,0.00,,---,0.00,VWS V14.00,2013-05-20 18:33:00,
2013-05-20 14:34:00,63.9,33.5,30.07,SE,144,5.4,6.0,32,0.00,,---,0.00,VWS V14.00,2013-05-20 18:34:00,
2013-05-20 14:36:00,64.0,32.8,30.07,SSE,155,4.7,4.7,31,0.00,,---,0.00,VWS V14.00,2013-05-20 18:36:00,
2013-05-20 14:38:00,64.4,33.9,30.07,East,81,4.0,4.0,32,0.00,,---,0.00,VWS V14.00,2013-05-20 18:38:00,
2013-05-20 14:39:00,64.2,31.3,30.07,SE,140,0.0,6.0,29,0.00,,---,0.00,VWS V14.00,2013-05-20 18:39:00,
2013-05-20 14:40:00,64.4,31.5,30.07,East,100,4.0,6.0,29,0.00,,---,0.00,VWS V14.00,2013-05-20 18:40:00,
2013-05-20 14:41:00,64.4,31.5,30.07,East,92,4.0,4.0,29,0.00,,---,0.00,VWS V14.00,2013-05-20 18:41:00,
2013-05-20 14:43:00,64.9,31.1,30.07,SSE,153,4.7,4.7,28,0.00,,---,0.00,VWS V14.00,2013-05-20 18:43:00,
2013-05-20 14:44:00,64.9,30.2,30.07,South,169,5.4,5.4,27,0.00,,---,0.00,VWS V14.00,2013-05-20 18:44:00,
2013-05-20 14:45:00,64.8,29.1,30.07,East,90,12.1,12.1,26,0.00,,---,0.00,VWS V14.00,2013-05-20 18:45:00,
2013-05-20 14:46:00,64.8,30.0,30.07,South,169,6.0,8.7,27,0.00,,---,0.00,VWS V14.00,2013-05-20 18:46:00,
2013-05-20 14:48:00,64.8,30.0,30.07,ESE,102,0.0,4.0,27,0.00,,---,0.00,VWS V14.00,2013-05-20 18:48:00,
2013-05-20 14:49:00,65.1,29.4,30.07,SE,126,6.0,6.0,26,0.00,,---,0.00,VWS V14.00,2013-05-20 18:49:00,
2013-05-20 14:50:00,65.3,29.6,30.07,ESE,112,4.7,5.4,26,0.00,,---,0.00,VWS V14.00,2013-05-20 18:50:00,
2013-05-20 14:51:00,65.3,29.6,30.07,East,88,3.4,4.0,26,0.00,,---,0.00,VWS V14.00,2013-05-20 18:51:00,
2013-05-20 14:53:00,66.6,28.7,30.04,South,171,4.7,4.7,24,0.00,,---,0.00,VWS V14.00,2013-05-20 18:53:00,
2013-05-20 14:54:00,66.6,28.7,30.04,SSE,160,8.1,8.1,24,0.00,,---,0.00,VWS V14.00,2013-05-20 18:54:00,
2013-05-20 14:55:00,66.6,27.6,30.04,SE,131,7.4,8.1,23,0.00,,---,0.00,VWS V14.00,2013-05-20 18:55:00,
2013-05-20 14:56:00,66.7,27.8,30.04,ESE,118,0.0,5.4,23,0.00,,---,0.00,VWS V14.00,2013-05-20 18:56:00,
2013-05-20 14:58:00,66.2,27.3,30.04,ESE,102,4.7,8.1,23,0.00,,---,0.00,VWS V14.00,2013-05-20 18:58:00,
2013-05-20 14:59:00,65.8,27.0,30.04,East,98,8.7,8.7,23,0.00,,---,0.00,VWS V14.00,2013-05-20 18:59:00,
2013-05-20 15:01:00,65.1,27.5,30.04,ESE,110,6.0,8.7,24,0.00,,---,0.00,VWS V14.00,2013-05-20 19:01:00,
2013-05-20 15:04:00,65.7,27.9,30.04,SE,144,5.4,6.0,24,0.00,,---,0.00,VWS V14.00,2013-05-20 19:04:00,
2013-05-20 15:05:00,65.8,28.1,30.04,SSE,156,3.4,6.0,24,0.00,,---,0.00,VWS V14.00,2013-05-20 19:05:00,
2013-05-20 15:06:00,66.0,28.2,30.04,South,189,4.7,4.7,24,0.00,,---,0.00,VWS V14.00,2013-05-20 19:06:00,
2013-05-20 15:07:00,66.0,28.2,30.04,SE,132,6.0,6.0,24,0.00,,---,0.00,VWS V14.00,2013-05-20 19:07:00,
2013-05-20 15:09:00,66.2,27.3,30.07,SE,141,4.7,6.0,23,0.00,,---,0.00,VWS V14.00,2013-05-20 19:09:00,
2013-05-20 15:10:00,66.4,27.5,30.07,South,175,8.1,8.1,23,0.00,,---,0.00,VWS V14.00,2013-05-20 19:10:00,
2013-05-20 15:11:00,66.2,27.3,30.07,ESE,114,4.7,8.1,23,0.00,,---,0.00,VWS V14.00,2013-05-20 19:11:00,
2013-05-20 15:12:00,66.7,27.8,30.07,South,171,3.4,4.7,23,0.00,,---,0.00,VWS V14.00,2013-05-20 19:12:00,
2013-05-20 15:14:00,66.6,27.6,30.07,SE,126,8.7,8.7,23,0.00,,---,0.00,VWS V14.00,2013-05-20 19:14:00,
2013-05-20 15:15:00,66.6,27.6,30.07,SE,135,6.0,9.4,23,0.00,,---,0.00,VWS V14.00,2013-05-20 19:15:00,
2013-05-20 15:16:00,66.6,27.6,30.07,ESE,123,4.0,7.4,23,0.00,,---,0.00,VWS V14.00,2013-05-20 19:16:00,
2013-05-20 15:17:00,66.6,27.6,30.07,SE,146,4.0,7.4,23,0.00,,---,0.00,VWS V14.00,2013-05-20 19:17:00,
2013-05-20 15:19:00,66.0,27.2,30.07,East,98,4.0,6.0,23,0.00,,---,0.00,VWS V14.00,2013-05-20 19:19:00,
2013-05-20 15:20:00,65.8,27.0,30.07,ESE,109,4.7,7.4,23,0.00,,---,0.00,VWS V14.00,2013-05-20 19:20:00,
2013-05-20 15:21:00,65.5,27.8,30.07,ESE,118,5.4,6.0,24,0.00,,---,0.00,VWS V14.00,2013-05-20 19:21:00,
2013-05-20 15:22:00,65.1,27.5,30.04,East,89,4.7,8.1,24,0.00,,---,0.00,VWS V14.00,2013-05-20 19:22:00,
2013-05-20 15:24:00,64.6,28.0,30.04,ESE,115,6.0,6.7,25,0.00,,---,0.00,VWS V14.00,2013-05-20 19:24:00,
2013-05-20 15:25:00,64.6,28.0,30.04,ESE,116,4.7,6.7,25,0.00,,---,0.00,VWS V14.00,2013-05-20 19:25:00,
2013-05-20 15:26:00,64.8,29.1,30.04,SSE,162,5.4,8.1,26,0.00,,---,0.00,VWS V14.00,2013-05-20 19:26:00,
2013-05-20 15:28:00,65.3,28.6,30.04,East,93,6.0,6.0,25,0.00,,---,0.00,VWS V14.00,2013-05-20 19:28:00,
2013-05-20 15:29:00,65.5,28.8,30.04,East,91,4.7,7.4,25,0.00,,---,0.00,VWS V14.00,2013-05-20 19:29:00,
2013-05-20 15:30:00,65.5,28.8,30.04,ESE,110,6.0,6.0,25,0.00,,---,0.00,VWS V14.00,2013-05-20 19:30:00,
2013-05-20 15:31:00,65.7,27.9,30.04,ESE,118,4.0,8.1,24,0.00,,---,0.00,VWS V14.00,2013-05-20 19:31:00,
2013-05-20 15:33:00,65.7,27.9,30.04,SSE,163,6.0,6.0,24,0.00,,---,0.00,VWS V14.00,2013-05-20 19:33:00,
2013-05-20 15:35:00,66.2,28.4,30.04,SE,139,0.0,4.7,24,0.00,,---,0.00,VWS V14.00,2013-05-20 19:35:00,
2013-05-20 15:36:00,66.4,28.5,30.04,ESE,111,4.7,4.7,24,0.00,,---,0.00,VWS V14.00,2013-05-20 19:36:00,
2013-05-20 15:38:00,66.6,27.6,30.04,ESE,103,6.0,6.0,23,0.00,,---,0.00,VWS V14.00,2013-05-20 19:38:00,
2013-05-20 15:40:00,66.0,28.2,30.04,SSE,155,9.4,9.4,24,0.00,,---,0.00,VWS V14.00,2013-05-20 19:40:00,
2013-05-20 15:41:00,66.0,27.2,30.04,ESE,112,8.1,8.1,23,0.00,,---,0.00,VWS V14.00,2013-05-20 19:41:00,
2013-05-20 15:43:00,66.0,27.2,30.04,SSE,166,8.1,8.1,23,0.00,,---,0.00,VWS V14.00,2013-05-20 19:43:00,
2013-05-20 15:45:00,66.4,27.5,30.04,SSE,149,7.4,7.4,23,0.00,,---,0.00,VWS V14.00,2013-05-20 19:45:00,
2013-05-20 15:46:00,66.9,27.9,30.04,SSW,202,6.0,7.4,23,0.00,,---,0.00,VWS V14.00,2013-05-20 19:46:00,
2013-05-20 15:48:00,66.9,26.9,30.04,SSE,155,6.0,7.4,22,0.00,,---,0.00,VWS V14.00,2013-05-20 19:48:00,
2013-05-20 15:50:00,66.9,26.9,30.04,SSE,167,8.7,8.7,22,0.00,,---,0.00,VWS V14.00,2013-05-20 19:50:00,
2013-05-20 15:51:00,67.1,27.0,30.04,SSE,168,6.0,8.7,22,0.00,,---,0.00,VWS V14.00,2013-05-20 19:51:00,
2013-05-20 15:52:00,67.5,27.3,30.04,South,172,4.7,5.4,22,0.00,,---,0.00,VWS V14.00,2013-05-20 19:52:00,
2013-05-20 15:53:00,67.8,25.3,30.04,SSE,147,6.0,6.0,20,0.00,,---,0.00,VWS V14.00,2013-05-20 19:53:00,
2013-05-20 15:55:00,67.6,25.2,30.04,ESE,116,6.0,8.1,20,0.00,,---,0.00,VWS V14.00,2013-05-20 19:55:00,
2013-05-20 15:56:00,67.3,24.9,30.04,ESE,115,4.7,8.1,20,0.00,,---,0.00,VWS V14.00,2013-05-20 19:56:00,
2013-05-20 15:57:00,67.3,24.9,30.04,ESE,122,6.0,7.4,20,0.00,,---,0.00,VWS V14.00,2013-05-20 19:57:00,
2013-05-20 15:58:00,67.3,24.9,30.04,ESE,112,5.4,8.7,20,0.00,,---,0.00,VWS V14.00,2013-05-20 19:58:00,
2013-05-20 16:01:00,67.3,24.9,30.04,SSE,159,4.0,8.7,20,0.00,,---,0.00,VWS V14.00,2013-05-20 20:01:00,
2013-05-20 16:02:00,67.5,25.0,30.04,ENE,78,6.0,6.0,20,0.00,,---,0.00,VWS V14.00,2013-05-20 20:02:00,
2013-05-20 16:03:00,67.8,25.3,30.04,ESE,103,5.4,5.4,20,0.00,,---,0.00,VWS V14.00,2013-05-20 20:03:00,
2013-05-20 16:06:00,68.2,25.6,30.04,ESE,117,5.4,8.7,20,0.00,,---,0.00,VWS V14.00,2013-05-20 20:06:00,
2013-05-20 16:07:00,68.7,26.1,30.04,SE,144,6.0,6.0,20,0.00,,---,0.00,VWS V14.00,2013-05-20 20:07:00,
2013-05-20 16:08:00,69.6,26.8,30.04,SSE,150,4.7,4.7,20,0.00,,---,0.00,VWS V14.00,2013-05-20 20:08:00,
2013-05-20 16:11:00,70.5,23.6,30.04,South,171,3.4,4.7,17,0.00,,---,0.00,VWS V14.00,2013-05-20 20:11:00,
2013-05-20 16:12:00,70.5,23.6,30.04,SSE,150,6.0,6.0,17,0.00,,---,0.00,VWS V14.00,2013-05-20 20:12:00,
2013-05-20 16:14:00,70.5,23.6,30.04,South,176,6.0,8.7,17,0.00,,---,0.00,VWS V14.00,2013-05-20 20:14:00,
2013-05-20 16:16:00,71.6,23.1,30.04,SE,128,5.4,5.4,16,0.00,,---,0.00,VWS V14.00,2013-05-20 20:16:00,
2013-05-20 16:17:00,71.6,23.1,30.04,SE,129,5.4,5.4,16,0.00,,---,0.00,VWS V14.00,2013-05-20 20:17:00,
2013-05-20 16:19:00,71.8,23.2,30.04,SE,142,4.7,6.0,16,0.00,,---,0.00,VWS V14.00,2013-05-20 20:19:00,
2013-05-20 16:21:00,71.6,23.1,30.04,SSE,154,4.0,7.4,16,0.00,,---,0.00,VWS V14.00,2013-05-20 20:21:00,
2013-05-20 16:22:00,71.6,23.1,30.04,South,180,4.7,7.4,16,0.00,,---,0.00,VWS V14.00,2013-05-20 20:22:00,
2013-05-20 16:24:00,72.0,23.4,30.04,SSE,154,5.4,5.4,16,0.00,,---,0.00,VWS V14.00,2013-05-20 20:24:00,
2013-05-20 16:26:00,72.7,23.9,30.04,East,100,3.4,4.7,16,0.00,,---,0.00,VWS V14.00,2013-05-20 20:26:00,
2013-05-20 16:27:00,72.7,23.9,30.04,ESE,106,4.0,4.7,16,0.00,,---,0.00,VWS V14.00,2013-05-20 20:27:00,
2013-05-20 16:29:00,72.7,23.9,30.04,SSE,147,5.4,5.4,16,0.00,,---,0.00,VWS V14.00,2013-05-20 20:29:00,
2013-05-20 16:32:00,72.3,23.6,30.04,East,101,5.4,6.7,16,0.00,,---,0.00,VWS V14.00,2013-05-20 20:32:00,
2013-05-20 16:34:00,72.5,23.8,30.04,ESE,114,3.4,3.4,16,0.00,,---,0.00,VWS V14.00,2013-05-20 20:34:00,
2013-05-20 16:37:00,72.7,23.9,30.04,ESE,114,4.0,6.0,16,0.00,,---,0.00,VWS V14.00,2013-05-20 20:37:00,
2013-05-20 16:38:00,72.3,23.6,30.04,SE,125,4.0,4.7,16,0.00,,---,0.00,VWS V14.00,2013-05-20 20:38:00,
2013-05-20 16:39:00,72.9,24.1,30.04,ESE,115,3.4,3.4,16,0.00,,---,0.00,VWS V14.00,2013-05-20 20:39:00,
2013-05-20 16:42:00,71.6,23.1,30.04,East,93,5.4,5.4,16,0.00,,---,0.00,VWS V14.00,2013-05-20 20:42:00,
2013-05-20 16:43:00,71.6,23.1,30.04,ESE,116,5.4,5.4,16,0.00,,---,0.00,VWS V14.00,2013-05-20 20:43:00,
2013-05-20 16:44:00,71.4,24.4,30.04,East,98,5.4,5.4,17,0.00,,---,0.00,VWS V14.00,2013-05-20 20:44:00,
2013-05-20 16:47:00,72.0,23.4,30.04,ESE,108,4.0,4.0,16,0.00,,---,0.00,VWS V14.00,2013-05-20 20:47:00,
2013-05-20 16:48:00,71.8,23.2,30.04,ESE,105,4.7,4.7,16,0.00,,---,0.00,VWS V14.00,2013-05-20 20:48:00,
2013-05-20 16:49:00,71.8,23.2,30.04,ESE,107,0.0,3.4,16,0.00,,---,0.00,VWS V14.00,2013-05-20 20:49:00,
2013-05-20 16:52:00,72.1,23.5,30.04,ENE,68,4.7,4.7,16,0.00,,---,0.00,VWS V14.00,2013-05-20 20:52:00,
2013-05-20 16:53:00,72.5,23.8,30.04,East,91,4.7,5.4,16,0.00,,---,0.00,VWS V14.00,2013-05-20 20:53:00,
2013-05-20 16:54:00,72.7,23.9,30.04,ENE,57,4.0,4.0,16,0.00,,---,0.00,VWS V14.00,2013-05-20 20:54:00,
2013-05-20 16:57:00,72.5,23.8,30.04,ESE,108,3.4,4.0,16,0.00,,---,0.00,VWS V14.00,2013-05-20 20:57:00,
2013-05-20 16:58:00,72.5,23.8,30.04,East,97,4.0,4.0,16,0.00,,---,0.00,VWS V14.00,2013-05-20 20:58:00,
2013-05-20 16:59:00,72.7,23.9,30.04,East,92,4.7,5.4,16,0.00,,---,0.00,VWS V14.00,2013-05-20 20:59:00,
2013-05-20 17:02:00,73.6,24.7,30.04,ENE,77,5.4,5.4,16,0.00,,---,0.00,VWS V14.00,2013-05-20 21:02:00,
2013-05-20 17:03:00,73.6,24.7,30.04,ESE,107,5.4,5.4,16,0.00,,---,0.00,VWS V14.00,2013-05-20 21:03:00,
2013-05-20 17:05:00,73.6,24.7,30.04,East,90,4.7,5.4,16,0.00,,---,0.00,VWS V14.00,2013-05-20 21:05:00,
2013-05-20 17:07:00,74.5,25.4,30.04,East,101,4.0,4.0,16,0.00,,---,0.00,VWS V14.00,2013-05-20 21:07:00,
2013-05-20 17:08:00,74.7,25.5,30.04,ESE,104,4.0,5.4,16,0.00,,---,0.00,VWS V14.00,2013-05-20 21:08:00,
2013-05-20 17:10:00,75.7,24.9,30.04,SE,129,0.0,4.0,15,0.00,,---,0.00,VWS V14.00,2013-05-20 21:10:00,
2013-05-20 17:12:00,76.6,25.6,30.04,East,97,0.0,4.0,15,0.00,,---,0.00,VWS V14.00,2013-05-20 21:12:00,
2013-05-20 17:14:00,75.9,25.0,30.04,ESE,117,6.0,7.4,15,0.00,,---,0.00,VWS V14.00,2013-05-20 21:14:00,
2013-05-20 17:15:00,75.0,25.8,30.04,SE,125,4.7,6.0,16,0.00,,---,0.00,VWS V14.00,2013-05-20 21:15:00,
2013-05-20 17:18:00,76.1,25.1,30.04,SSE,149,3.4,3.4,15,0.00,,---,0.00,VWS V14.00,2013-05-20 21:18:00,
2013-05-20 17:19:00,75.0,25.8,30.04,SSE,157,6.0,6.0,16,0.00,,---,0.00,VWS V14.00,2013-05-20 21:19:00,
2013-05-20 17:20:00,75.2,24.4,30.04,South,177,6.0,7.4,15,0.00,,---,0.00,VWS V14.00,2013-05-20 21:20:00,
2013-05-20 17:23:00,75.0,25.8,30.04,East,85,5.4,5.4,16,0.00,,---,0.00,VWS V14.00,2013-05-20 21:23:00,
2013-05-20 17:24:00,75.4,24.6,30.04,East,100,4.0,4.0,15,0.00,,---,0.00,VWS V14.00,2013-05-20 21:24:00,
2013-05-20 17:25:00,75.6,24.7,30.04,East,81,4.0,4.0,15,0.00,,---,0.00,VWS V14.00,2013-05-20 21:25:00,
2013-05-20 17:28:00,76.3,25.3,30.04,East,99,4.7,4.7,15,0.00,,---,0.00,VWS V14.00,2013-05-20 21:28:00,
2013-05-20 17:29:00,75.7,24.9,30.04,ESE,103,4.0,4.7,15,0.00,,---,0.00,VWS V14.00,2013-05-20 21:29:00,
2013-05-20 17:30:00,75.7,24.9,30.04,SE,145,4.7,5.4,15,0.00,,---,0.00,VWS V14.00,2013-05-20 21:30:00,
2013-05-20 17:33:00,75.2,24.4,30.04,East,90,6.0,7.4,15,0.00,,---,0.00,VWS V14.00,2013-05-20 21:33:00,
2013-05-20 17:34:00,75.0,25.8,30.04,ESE,102,4.7,6.0,16,0.00,,---,0.00,VWS V14.00,2013-05-20 21:34:00,
2013-05-20 17:35:00,74.8,25.7,30.04,East,92,6.0,6.0,16,0.00,,---,0.00,VWS V14.00,2013-05-20 21:35:00,
2013-05-20 17:38:00,75.2,24.4,30.04,ESE,122,4.0,6.0,15,0.00,,---,0.00,VWS V14.00,2013-05-20 21:38:00,
2013-05-20 17:39:00,75.6,24.7,30.04,SSE,149,4.0,4.0,15,0.00,,---,0.00,VWS V14.00,2013-05-20 21:39:00,
2013-05-20 17:40:00,75.6,24.7,30.04,East,98,3.4,4.0,15,0.00,,---,0.00,VWS V14.00,2013-05-20 21:40:00,
2013-05-20 17:43:00,75.6,24.7,30.04,ESE,104,0.0,4.7,15,0.00,,---,0.00,VWS V14.00,2013-05-20 21:43:00,
2013-05-20 17:44:00,75.6,24.7,30.04,East,95,3.4,4.7,15,0.00,,---,0.00,VWS V14.00,2013-05-20 21:44:00,
2013-05-20 17:45:00,76.1,25.1,30.04,East,95,3.4,4.7,15,0.00,,---,0.00,VWS V14.00,2013-05-20 21:45:00,
2013-05-20 17:48:00,75.4,24.6,30.04,East,84,4.7,6.0,15,0.00,,---,0.00,VWS V14.00,2013-05-20 21:48:00,
2013-05-20 17:49:00,75.4,24.6,30.04,ENE,57,5.4,5.4,15,0.00,,---,0.00,VWS V14.00,2013-05-20 21:49:00,
2013-05-20 17:50:00,75.4,24.6,30.04,East,86,4.0,5.4,15,0.00,,---,0.00,VWS V14.00,2013-05-20 21:50:00,
2013-05-20 17:53:00,75.0,25.8,30.04,ENE,65,4.7,4.7,16,0.00,,---,0.00,VWS V14.00,2013-05-20 21:53:00,
2013-05-20 17:54:00,75.0,25.8,30.04,East,95,5.4,5.4,16,0.00,,---,0.00,VWS V14.00,2013-05-20 21:54:00,
2013-05-20 17:55:00,75.0,25.8,30.04,East,98,4.0,5.4,16,0.00,,---,0.00,VWS V14.00,2013-05-20 21:55:00,
2013-05-20 17:58:00,74.5,25.4,30.04,East,86,4.0,5.4,16,0.00,,---,0.00,VWS V14.00,2013-05-20 21:58:00,
2013-05-20 17:59:00,74.5,25.4,30.04,ESE,103,3.4,5.4,16,0.00,,---,0.00,VWS V14.00,2013-05-20 21:59:00,
2013-05-20 18:00:00,74.5,25.4,30.04,East,83,3.4,4.7,16,0.00,,---,0.00,VWS V14.00,2013-05-20 22:00:00,
2013-05-20 18:03:00,75.2,24.4,30.04,ESE,105,4.0,6.0,15,0.00,,---,0.00,VWS V14.00,2013-05-20 22:03:00,
2013-05-20 18:04:00,75.0,25.8,30.04,ENE,77,4.0,4.0,16,0.00,,---,0.00,VWS V14.00,2013-05-20 22:04:00,
2013-05-20 18:05:00,75.4,24.6,30.04,ESE,106,4.0,4.0,15,0.00,,---,0.00,VWS V14.00,2013-05-20 22:05:00,
2013-05-20 18:06:00,75.6,24.7,30.04,SE,143,5.4,5.4,15,0.00,,---,0.00,VWS V14.00,2013-05-20 22:06:00,
2013-05-20 18:08:00,75.9,25.0,30.04,SE,124,5.4,5.4,15,0.00,,---,0.00,VWS V14.00,2013-05-20 22:08:00,
2013-05-20 18:09:00,76.3,25.3,30.04,SE,124,0.0,5.4,15,0.00,,---,0.00,VWS V14.00,2013-05-20 22:09:00,
2013-05-20 18:10:00,76.3,25.3,30.04,East,87,0.0,5.4,15,0.00,,---,0.00,VWS V14.00,2013-05-20 22:10:00,
2013-05-20 18:11:00,76.6,25.6,30.04,East,79,4.0,5.4,15,0.00,,---,0.00,VWS V14.00,2013-05-20 22:11:00,
2013-05-20 18:14:00,76.5,25.4,30.04,ENE,67,4.0,4.7,15,0.00,,---,0.00,VWS V14.00,2013-05-20 22:14:00,
2013-05-20 18:15:00,76.1,25.1,30.04,ENE,67,4.7,4.7,15,0.00,,---,0.00,VWS V14.00,2013-05-20 22:15:00,
2013-05-20 18:16:00,75.7,24.9,30.04,ENE,71,4.7,4.7,15,0.00,,---,0.00,VWS V14.00,2013-05-20 22:16:00,
2013-05-20 18:19:00,74.7,25.5,30.04,ESE,104,3.4,5.4,16,0.00,,---,0.00,VWS V14.00,2013-05-20 22:19:00,
2013-05-20 18:20:00,74.1,25.1,30.04,ENE,63,4.0,5.4,16,0.00,,---,0.00,VWS V14.00,2013-05-20 22:20:00,
2013-05-20 18:21:00,74.1,25.1,30.04,ENE,61,4.0,5.4,16,0.00,,---,0.00,VWS V14.00,2013-05-20 22:21:00,
2013-05-20 18:24:00,73.8,24.8,30.04,NE,56,4.7,5.4,16,0.00,,---,0.00,VWS V14.00,2013-05-20 22:24:00,
2013-05-20 18:26:00,73.4,24.5,30.04,ENE,69,4.7,5.4,16,0.00,,---,0.00,VWS V14.00,2013-05-20 22:26:00,
2013-05-20 18:29:00,72.1,23.5,30.04,ENE,67,4.0,6.0,16,0.00,,---,0.00,VWS V14.00,2013-05-20 22:29:00,
2013-05-20 18:31:00,71.2,24.2,30.04,ENE,71,4.7,5.4,17,0.00,,---,0.00,VWS V14.00,2013-05-20 22:31:00,
2013-05-20 18:34:00,69.8,23.1,30.04,NE,52,4.7,4.7,17,0.00,,---,0.00,VWS V14.00,2013-05-20 22:34:00,
2013-05-20 18:36:00,68.7,22.2,30.04,East,81,4.7,4.7,17,0.00,,---,0.00,VWS V14.00,2013-05-20 22:36:00,
2013-05-20 18:39:00,67.1,20.9,30.04,NNE,32,4.7,6.0,17,0.00,,---,0.00,VWS V14.00,2013-05-20 22:39:00,
2013-05-20 18:40:00,67.1,20.9,30.04,NNE,31,3.4,3.4,17,0.00,,---,0.00,VWS V14.00,2013-05-20 22:40:00,
2013-05-20 18:41:00,66.7,20.6,30.04,NE,47,4.7,4.7,17,0.00,,---,0.00,VWS V14.00,2013-05-20 22:41:00,
2013-05-20 18:44:00,66.0,21.3,30.04,NE,46,4.0,4.7,18,0.00,,---,0.00,VWS V14.00,2013-05-20 22:44:00,
2013-05-20 18:46:00,65.8,21.2,30.04,NNE,25,4.0,4.0,18,0.00,,---,0.00,VWS V14.00,2013-05-20 22:46:00,
2013-05-20 18:50:00,65.5,20.9,30.04,ENE,57,4.0,5.4,18,0.00,,---,0.00,VWS V14.00,2013-05-20 22:50:00,
2013-05-20 18:51:00,65.3,20.7,30.04,ENE,72,4.0,4.7,18,0.00,,---,0.00,VWS V14.00,2013-05-20 22:51:00,
2013-05-20 18:55:00,64.0,23.3,30.04,ENE,64,4.7,4.7,21,0.00,,---,0.00,VWS V14.00,2013-05-20 22:55:00,
2013-05-20 18:56:00,63.9,23.2,30.04,ENE,58,4.0,4.0,21,0.00,,---,0.00,VWS V14.00,2013-05-20 22:56:00,
2013-05-20 18:57:00,63.7,25.2,30.04,NE,45,4.0,4.7,23,0.00,,---,0.00,VWS V14.00,2013-05-20 22:57:00,
2013-05-20 19:00:00,63.0,25.6,30.04,ENE,73,4.0,4.7,24,0.00,,---,0.00,VWS V14.00,2013-05-20 23:00:00,
2013-05-20 19:01:00,63.0,25.6,30.04,ENE,73,4.0,4.0,24,0.00,,---,0.00,VWS V14.00,2013-05-20 23:01:00,
2013-05-20 19:02:00,62.8,25.5,30.04,East,88,4.7,4.7,24,0.00,,---,0.00,VWS V14.00,2013-05-20 23:02:00,
2013-05-20 19:05:00,63.0,26.6,30.04,ESE,102,4.7,4.7,25,0.00,,---,0.00,VWS V14.00,2013-05-20 23:05:00,
2013-05-20 19:06:00,63.0,26.6,30.04,East,94,4.7,4.7,25,0.00,,---,0.00,VWS V14.00,2013-05-20 23:06:00,
2013-05-20 19:07:00,63.1,25.8,30.04,ESE,102,4.7,4.7,24,0.00,,---,0.00,VWS V14.00,2013-05-20 23:07:00,
2013-05-20 19:11:00,63.5,26.1,30.04,East,100,4.0,4.0,24,0.00,,---,0.00,VWS V14.00,2013-05-20 23:11:00,
2013-05-20 19:12:00,63.5,26.1,30.04,ENE,77,4.0,5.4,24,0.00,,---,0.00,VWS V14.00,2013-05-20 23:12:00,
2013-05-20 19:16:00,63.5,26.1,30.04,ENE,77,3.4,3.4,24,0.00,,---,0.00,VWS V14.00,2013-05-20 23:16:00,
2013-05-20 19:17:00,63.5,26.1,30.04,ENE,77,3.4,3.4,24,0.00,,---,0.00,VWS V14.00,2013-05-20 23:17:00,
2013-05-20 19:21:00,63.5,26.1,30.04,NE,47,4.0,4.0,24,0.00,,---,0.00,VWS V14.00,2013-05-20 23:21:00,
2013-05-20 19:22:00,63.5,26.1,30.04,NE,47,4.0,4.0,24,0.00,,---,0.00,VWS V14.00,2013-05-20 23:22:00,
2013-05-20 19:26:00,63.9,26.4,30.04,NNE,22,4.0,4.0,24,0.00,,---,0.00,VWS V14.00,2013-05-20 23:26:00,
2013-05-20 19:27:00,64.0,26.5,30.04,NNE,26,5.4,5.4,24,0.00,,---,0.00,VWS V14.00,2013-05-20 23:27:00,
2013-05-20 19:31:00,63.9,26.4,30.04,North,3,5.4,6.0,24,0.00,,---,0.00,VWS V14.00,2013-05-20 23:31:00,
2013-05-20 19:32:00,63.9,25.4,30.04,NNE,14,4.0,5.4,23,0.00,,---,0.00,VWS V14.00,2013-05-20 23:32:00,
2013-05-20 19:36:00,63.3,25.9,30.04,North,0,4.7,6.0,24,0.00,,---,0.00,VWS V14.00,2013-05-20 23:36:00,
2013-05-20 19:37:00,63.3,25.9,30.04,North,3,5.4,6.0,24,0.00,,---,0.00,VWS V14.00,2013-05-20 23:37:00,
2013-05-20 19:38:00,63.1,25.8,30.04,North,353,8.1,8.1,24,0.00,,---,0.00,VWS V14.00,2013-05-20 23:38:00,
2013-05-20 19:41:00,62.6,25.3,30.04,North,3,3.4,6.0,24,0.00,,---,0.00,VWS V14.00,2013-05-20 23:41:00,
2013-05-20 19:42:00,62.6,25.3,30.04,NNE,15,4.7,4.7,24,0.00,,---,0.00,VWS V14.00,2013-05-20 23:42:00,
2013-05-20 19:43:00,62.4,25.2,30.04,NNE,17,4.7,4.7,24,0.00,,---,0.00,VWS V14.00,2013-05-20 23:43:00,
2013-05-20 19:46:00,62.4,25.2,30.04,North,8,0.0,4.0,24,0.00,,---,0.00,VWS V14.00,2013-05-20 23:46:00,
2013-05-20 19:47:00,62.6,25.3,30.04,North,8,0.0,3.4,24,0.00,,---,0.00,VWS V14.00,2013-05-20 23:47:00,
2013-05-20 19:48:00,62.6,25.3,30.04,North,8,0.0,3.4,24,0.00,,---,0.00,VWS V14.00,2013-05-20 23:48:00,
2013-05-20 19:51:00,63.0,25.6,30.04,North,11,3.4,4.0,24,0.00,,---,0.00,VWS V14.00,2013-05-20 23:51:00,
2013-05-20 19:52:00,62.8,25.5,30.07,NNE,15,3.4,4.7,24,0.00,,---,0.00,VWS V14.00,2013-05-20 23:52:00,
2013-05-20 19:53:00,62.8,25.5,30.07,NNE,15,3.4,4.7,24,0.00,,---,0.00,VWS V14.00,2013-05-20 23:53:00,
2013-05-20 19:57:00,63.0,25.6,30.07,NNE,25,5.4,5.4,24,0.00,,---,0.00,VWS V14.00,2013-05-20 23:57:00,
2013-05-20 19:58:00,63.0,25.6,30.07,NE,40,4.7,4.7,24,0.00,,---,0.00,VWS V14.00,2013-05-20 23:58:00,
2013-05-20 20:02:00,63.0,24.6,30.07,NE,35,4.7,4.7,23,0.00,,---,0.00,VWS V14.00,2013-05-21 00:02:00,
2013-05-20 20:03:00,63.0,24.6,30.07,NE,38,4.0,4.7,23,0.00,,---,0.00,VWS V14.00,2013-05-21 00:03:00,
2013-05-20 20:04:00,63.0,25.6,30.07,NE,40,4.0,4.0,24,0.00,,---,0.00,VWS V14.00,2013-05-21 00:04:00,
2013-05-20 20:07:00,62.8,25.5,30.07,NE,37,5.4,5.4,24,0.00,,---,0.00,VWS V14.00,2013-05-21 00:07:00,
2013-05-20 20:08:00,62.6,25.3,30.04,NNE,24,4.0,5.4,24,0.00,,---,0.00,VWS V14.00,2013-05-21 00:08:00,
2013-05-20 20:09:00,62.4,25.2,30.04,NNE,20,4.7,4.7,24,0.00,,---,0.00,VWS V14.00,2013-05-21 00:09:00,
2013-05-20 20:12:00,62.4,25.2,30.04,NNE,14,4.0,4.0,24,0.00,,---,0.00,VWS V14.00,2013-05-21 00:12:00,
2013-05-20 20:13:00,62.2,25.0,30.04,NNE,17,0.0,4.0,24,0.00,,---,0.00,VWS V14.00,2013-05-21 00:13:00,
2013-05-20 20:15:00,62.1,24.9,30.04,NNE,16,3.4,3.4,24,0.00,,---,0.00,VWS V14.00,2013-05-21 00:15:00,
2013-05-20 20:17:00,61.9,24.7,30.04,NNE,18,0.0,0.0,24,0.00,,---,0.00,VWS V14.00,2013-05-21 00:17:00,
2013-05-20 20:18:00,61.7,24.6,30.04,NNE,18,3.4,3.4,24,0.00,,---,0.00,VWS V14.00,2013-05-21 00:18:00,
2013-05-20 20:19:00,61.7,24.6,30.04,NNE,18,3.4,4.0,24,0.00,,---,0.00,VWS V14.00,2013-05-21 00:19:00,
2013-05-20 20:20:00,61.7,25.5,30.04,NNE,32,3.4,4.0,25,0.00,,---,0.00,VWS V14.00,2013-05-21 00:20:00,
2013-05-20 20:22:00,61.5,25.4,30.04,NE,47,0.0,0.0,25,0.00,,---,0.00,VWS V14.00,2013-05-21 00:22:00,
2013-05-20 20:23:00,61.5,25.4,30.07,NE,47,0.0,3.4,25,0.00,,---,0.00,VWS V14.00,2013-05-21 00:23:00,
2013-05-20 20:24:00,61.3,25.2,30.07,NE,47,3.4,3.4,25,0.00,,---,0.00,VWS V14.00,2013-05-21 00:24:00,
2013-05-20 20:25:00,61.3,25.2,30.07,NE,47,0.0,3.4,25,0.00,,---,0.00,VWS V14.00,2013-05-21 00:25:00,
2013-05-20 20:27:00,61.2,25.1,30.07,NE,47,0.0,0.0,25,0.00,,---,0.00,VWS V14.00,2013-05-21 00:27:00,
2013-05-20 20:28:00,61.2,25.1,30.07,NE,47,0.0,0.0,25,0.00,,---,0.00,VWS V14.00,2013-05-21 00:28:00,
2013-05-20 20:29:00,61.2,25.1,30.07,NE,47,0.0,0.0,25,0.00,,---,0.00,VWS V14.00,2013-05-21 00:29:00,
2013-05-20 20:30:00,61.0,24.9,30.07,NE,47,0.0,0.0,25,0.00,,---,0.00,VWS V14.00,2013-05-21 00:30:00,
2013-05-20 20:32:00,61.0,25.9,30.07,NE,47,0.0,0.0,26,0.00,,---,0.00,VWS V14.00,2013-05-21 00:32:00,
2013-05-20 20:33:00,61.0,25.9,30.07,NE,47,0.0,0.0,26,0.00,,---,0.00,VWS V14.00,2013-05-21 00:33:00,
2013-05-20 20:34:00,60.8,25.7,30.07,NE,47,0.0,0.0,26,0.00,,---,0.00,VWS V14.00,2013-05-21 00:34:00,
2013-05-20 20:35:00,60.8,26.6,30.07,NE,47,4.0,4.0,27,0.00,,---,0.00,VWS V14.00,2013-05-21 00:35:00,
2013-05-20 20:37:00,60.6,27.4,30.04,NE,48,3.4,4.0,28,0.00,,---,0.00,VWS V14.00,2013-05-21 00:37:00,
2013-05-20 20:39:00,60.6,27.4,30.04,NE,52,4.0,4.7,28,0.00,,---,0.00,VWS V14.00,2013-05-21 00:39:00,
2013-05-20 20:40:00,60.6,27.4,30.04,NE,53,0.0,4.0,28,0.00,,---,0.00,VWS V14.00,2013-05-21 00:40:00,
2013-05-20 20:42:00,60.4,27.2,30.04,ENE,59,0.0,3.4,28,0.00,,---,0.00,VWS V14.00,2013-05-21 00:42:00,
2013-05-20 20:44:00,60.4,27.2,30.04,East,79,4.0,4.0,28,0.00,,---,0.00,VWS V14.00,2013-05-21 00:44:00,
2013-05-20 20:45:00,60.4,27.2,30.04,East,79,4.0,4.0,28,0.00,,---,0.00,VWS V14.00,2013-05-21 00:45:00,
2013-05-20 20:48:00,60.3,27.9,30.04,ENE,73,4.0,4.0,29,0.00,,---,0.00,VWS V14.00,2013-05-21 00:48:00,
2013-05-20 20:49:00,60.1,27.7,30.04,ENE,71,4.0,4.0,29,0.00,,---,0.00,VWS V14.00,2013-05-21 00:49:00,
2013-05-20 20:50:00,60.1,28.6,30.04,ENE,71,3.4,3.4,30,0.00,,---,0.00,VWS V14.00,2013-05-21 00:50:00,
2013-05-20 20:53:00,59.9,27.6,30.04,ENE,62,4.0,4.0,29,0.00,,---,0.00,VWS V14.00,2013-05-21 00:53:00,
2013-05-20 20:54:00,59.7,27.4,30.04,NE,56,4.0,4.0,29,0.00,,---,0.00,VWS V14.00,2013-05-21 00:54:00,
2013-05-20 20:55:00,59.7,28.3,30.04,ENE,61,4.7,4.7,30,0.00,,---,0.00,VWS V14.00,2013-05-21 00:55:00,
2013-05-20 20:56:00,59.7,28.3,30.04,NE,48,4.0,4.0,30,0.00,,---,0.00,VWS V14.00,2013-05-21 00:56:00,
2013-05-20 20:58:00,59.5,28.1,30.04,NE,40,3.4,4.7,30,0.00,,---,0.00,VWS V14.00,2013-05-21 00:58:00,
2013-05-20 20:59:00,59.4,28.7,30.04,NE,40,3.4,4.0,31,0.00,,---,0.00,VWS V14.00,2013-05-21 00:59:00,
2013-05-20 21:00:00,59.4,28.7,30.04,NE,40,3.4,4.0,31,0.00,,---,0.00,VWS V14.00,2013-05-21 01:00:00,
2013-05-20 21:01:00,59.4,29.5,30.04,NE,40,0.0,3.4,32,0.00,,---,0.00,VWS V14.00,2013-05-21 01:01:00,
2013-05-20 21:03:00,59.2,29.4,30.04,NE,39,3.4,4.7,32,0.00,,---,0.00,VWS V14.00,2013-05-21 01:03:00,
2013-05-20 21:05:00,59.0,30.7,30.04,North,5,3.4,4.0,34,0.00,,---,0.00,VWS V14.00,2013-05-21 01:05:00,
2013-05-20 21:06:00,58.8,31.2,30.04,North,8,3.4,4.0,35,0.00,,---,0.00,VWS V14.00,2013-05-21 01:06:00,
2013-05-20 21:08:00,58.8,31.2,30.04,NNE,21,4.0,5.4,35,0.00,,---,0.00,VWS V14.00,2013-05-21 01:08:00,
2013-05-20 21:10:00,58.6,31.1,30.04,NNE,21,5.4,5.4,35,0.00,,---,0.00,VWS V14.00,2013-05-21 01:10:00,
2013-05-20 21:11:00,58.3,30.1,30.04,NNE,29,6.0,6.0,34,0.00,,---,0.00,VWS V14.00,2013-05-21 01:11:00,
2013-05-20 21:13:00,58.1,29.9,30.04,NNE,32,6.0,6.0,34,0.00,,---,0.00,VWS V14.00,2013-05-21 01:13:00,
2013-05-20 21:15:00,57.9,30.5,30.04,NNE,33,5.4,5.4,35,0.00,,---,0.00,VWS V14.00,2013-05-21 01:15:00,
2013-05-20 21:16:00,57.7,30.3,30.04,NE,43,5.4,5.4,35,0.00,,---,0.00,VWS V14.00,2013-05-21 01:16:00,
2013-05-20 21:18:00,57.6,30.1,30.04,NE,43,4.7,4.7,35,0.00,,---,0.00,VWS V14.00,2013-05-21 01:18:00,
2013-05-20 21:20:00,57.4,30.7,30.04,NE,46,4.7,4.7,36,0.00,,---,0.00,VWS V14.00,2013-05-21 01:20:00,
2013-05-20 21:21:00,57.2,30.5,30.04,NNE,32,4.7,4.7,36,0.00,,---,0.00,VWS V14.00,2013-05-21 01:21:00,
2013-05-20 21:23:00,57.2,30.5,30.04,NE,36,4.0,5.4,36,0.00,,---,0.00,VWS V14.00,2013-05-21 01:23:00,
2013-05-20 21:25:00,56.8,30.9,30.04,NNE,33,5.4,5.4,37,0.00,,---,0.00,VWS V14.00,2013-05-21 01:25:00,
2013-05-20 21:26:00,56.8,31.5,30.04,NE,36,4.0,4.7,38,0.00,,---,0.00,VWS V14.00,2013-05-21 01:26:00,
2013-05-20 21:27:00,56.8,31.5,30.04,NE,36,4.0,4.7,38,0.00,,---,0.00,VWS V14.00,2013-05-21 01:27:00,
2013-05-20 21:28:00,56.7,32.0,30.04,ENE,57,3.4,5.4,39,0.00,,---,0.00,VWS V14.00,2013-05-21 01:28:00,
2013-05-20 21:30:00,56.7,32.6,30.04,NE,50,4.0,4.0,40,0.00,,---,0.00,VWS V14.00,2013-05-21 01:30:00,
2013-05-20 21:32:00,56.5,33.7,30.04,NE,48,4.0,4.0,42,0.00,,---,0.00,VWS V14.00,2013-05-21 01:32:00,
2013-05-20 21:33:00,56.5,33.7,30.04,NE,47,3.4,4.7,42,0.00,,---,0.00,VWS V14.00,2013-05-21 01:33:00,
2013-05-20 21:35:00,56.3,34.1,30.04,NE,37,4.0,4.0,43,0.00,,---,0.00,VWS V14.00,2013-05-21 01:35:00,
2013-05-20 21:36:00,56.3,34.1,30.04,NE,37,4.0,4.0,43,0.00,,---,0.00,VWS V14.00,2013-05-21 01:36:00,
2013-05-20 21:37:00,56.3,34.7,30.04,NNE,33,5.4,5.4,44,0.00,,---,0.00,VWS V14.00,2013-05-21 01:37:00,
2013-05-20 21:38:00,56.3,35.2,30.04,NE,52,4.7,6.0,45,0.00,,---,0.00,VWS V14.00,2013-05-21 01:38:00,
2013-05-20 21:40:00,56.3,35.8,30.04,NE,52,6.0,6.0,46,0.00,,---,0.00,VWS V14.00,2013-05-21 01:40:00,
2013-05-20 21:41:00,56.3,35.8,30.04,NE,51,4.0,6.0,46,0.00,,---,0.00,VWS V14.00,2013-05-21 01:41:00,
2013-05-20 21:42:00,56.3,35.8,30.04,ENE,60,5.4,5.4,46,0.00,,---,0.00,VWS V14.00,2013-05-21 01:42:00,
2013-05-20 21:43:00,56.3,35.8,30.04,NE,44,4.7,5.4,46,0.00,,---,0.00,VWS V14.00,2013-05-21 01:43:00,
2013-05-20 21:45:00,56.3,36.3,30.04,East,85,4.7,4.7,47,0.00,,---,0.00,VWS V14.00,2013-05-21 01:45:00,
2013-05-20 21:46:00,56.3,36.9,30.04,ENE,70,4.0,4.0,48,0.00,,---,0.00,VWS V14.00,2013-05-21 01:46:00,
2013-05-20 21:47:00,56.3,36.9,30.04,ENE,71,4.7,4.7,48,0.00,,---,0.00,VWS V14.00,2013-05-21 01:47:00,
2013-05-20 21:48:00,56.3,37.4,30.04,East,85,4.0,4.7,49,0.00,,---,0.00,VWS V14.00,2013-05-21 01:48:00,
2013-05-20 21:49:00,56.3,37.4,30.04,East,89,4.7,4.7,49,0.00,,---,0.00,VWS V14.00,2013-05-21 01:49:00,
2013-05-20 21:50:00,56.3,38.4,30.04,ENE,72,4.7,4.7,51,0.00,,---,0.00,VWS V14.00,2013-05-21 01:50:00,
2013-05-20 21:51:00,56.3,38.9,30.04,ENE,72,4.0,4.7,52,0.00,,---,0.00,VWS V14.00,2013-05-21 01:51:00,
2013-05-20 21:52:00,56.3,38.9,30.04,ENE,62,4.0,4.7,52,0.00,,---,0.00,VWS V14.00,2013-05-21 01:52:00,
2013-05-20 21:53:00,56.3,39.4,30.04,NE,55,5.4,6.0,53,0.00,,---,0.00,VWS V14.00,2013-05-21 01:53:00,
2013-05-20 21:54:00,56.3,39.4,30.04,ENE,73,4.0,6.0,53,0.00,,---,0.00,VWS V14.00,2013-05-21 01:54:00,
2013-05-20 21:55:00,56.3,39.4,30.04,ENE,57,4.0,4.0,53,0.00,,---,0.00,VWS V14.00,2013-05-21 01:55:00,
2013-05-20 21:56:00,56.3,39.9,30.04,NE,49,5.4,5.4,54,0.00,,---,0.00,VWS V14.00,2013-05-21 01:56:00,
2013-05-20 21:57:00,56.3,40.4,30.04,ENE,69,4.7,5.4,55,0.00,,---,0.00,VWS V14.00,2013-05-21 01:57:00,
2013-05-20 21:58:00,56.3,40.4,30.04,ENE,68,4.0,4.0,55,0.00,,---,0.00,VWS V14.00,2013-05-21 01:58:00,
2013-05-20 21:59:00,56.3,40.4,30.04,NE,49,4.0,4.0,55,0.00,,---,0.00,VWS V14.00,2013-05-21 01:59:00,
2013-05-20 22:01:00,56.1,40.7,30.04,NE,53,4.0,4.7,56,0.00,,---,0.00,VWS V14.00,2013-05-21 02:01:00,
2013-05-20 22:02:00,56.1,40.7,30.04,NE,53,4.0,4.0,56,0.00,,---,0.00,VWS V14.00,2013-05-21 02:02:00,
2013-05-20 22:03:00,56.1,41.1,30.04,NE,48,4.0,4.0,57,0.00,,---,0.00,VWS V14.00,2013-05-21 02:03:00,
2013-05-20 22:04:00,56.3,41.3,30.04,NE,48,3.4,4.0,57,0.00,,---,0.00,VWS V14.00,2013-05-21 02:04:00,
2013-05-20 22:06:00,56.1,41.1,30.04,NE,45,3.4,4.0,57,0.00,,---,0.00,VWS V14.00,2013-05-21 02:06:00,
2013-05-20 22:07:00,56.1,41.1,30.04,NE,42,3.4,4.0,57,0.00,,---,0.00,VWS V14.00,2013-05-21 02:07:00,
2013-05-20 22:08:00,56.3,41.3,30.07,NE,42,4.7,4.7,57,0.00,,---,0.00,VWS V14.00,2013-05-21 02:08:00,
2013-05-20 22:09:00,56.1,41.1,30.07,NE,42,4.0,4.7,57,0.00,,---,0.00,VWS V14.00,2013-05-21 02:09:00,
2013-05-20 22:11:00,56.1,41.1,30.07,NE,37,3.4,4.0,57,0.00,,---,0.00,VWS V14.00,2013-05-21 02:11:00,
2013-05-20 22:12:00,56.1,41.1,30.07,NE,53,4.0,4.0,57,0.00,,---,0.00,VWS V14.00,2013-05-21 02:12:00,
2013-05-20 22:13:00,56.1,40.7,30.07,NE,53,3.4,4.0,56,0.00,,---,0.00,VWS V14.00,2013-05-21 02:13:00,
2013-05-20 22:14:00,56.3,40.8,30.07,NE,53,4.0,4.7,56,0.00,,---,0.00,VWS V14.00,2013-05-21 02:14:00,
2013-05-20 22:16:00,56.3,40.8,30.07,NE,53,0.0,4.0,56,0.00,,---,0.00,VWS V14.00,2013-05-21 02:16:00,
2013-05-20 22:17:00,56.3,40.8,30.07,NE,53,3.4,4.0,56,0.00,,---,0.00,VWS V14.00,2013-05-21 02:17:00,
2013-05-20 22:18:00,56.3,40.8,30.07,NE,53,4.0,4.0,56,0.00,,---,0.00,VWS V14.00,2013-05-21 02:18:00,
2013-05-20 22:19:00,56.3,40.8,30.07,NE,53,3.4,3.4,56,0.00,,---,0.00,VWS V14.00,2013-05-21 02:19:00,
2013-05-20 22:22:00,56.3,41.7,30.07,NE,53,0.0,0.0,58,0.00,,---,0.00,VWS V14.00,2013-05-21 02:22:00,
2013-05-20 22:23:00,56.3,42.2,30.07,NE,53,0.0,0.0,59,0.00,,---,0.00,VWS V14.00,2013-05-21 02:23:00,
2013-05-20 22:24:00,56.3,42.6,30.07,NE,53,0.0,0.0,60,0.00,,---,0.00,VWS V14.00,2013-05-21 02:24:00,
2013-05-20 22:27:00,56.5,42.8,30.07,NE,53,0.0,0.0,60,0.00,,---,0.00,VWS V14.00,2013-05-21 02:27:00,
2013-05-20 22:28:00,56.5,42.8,30.07,NW,317,3.4,3.4,60,0.00,,---,0.00,VWS V14.00,2013-05-21 02:28:00,
2013-05-20 22:29:00,56.5,42.8,30.07,West,281,6.0,6.0,60,0.00,,---,0.00,VWS V14.00,2013-05-21 02:29:00,
2013-05-20 22:32:00,56.5,42.8,30.07,WNW,287,5.4,6.0,60,0.00,,---,0.00,VWS V14.00,2013-05-21 02:32:00,
2013-05-20 22:33:00,56.7,43.0,30.07,NW,326,4.7,5.4,60,0.00,,---,0.00,VWS V14.00,2013-05-21 02:33:00,
2013-05-20 22:34:00,56.7,43.4,30.07,North,353,0.0,3.4,61,0.00,,---,0.00,VWS V14.00,2013-05-21 02:34:00,
2013-05-20 22:37:00,56.8,44.0,30.07,North,353,0.0,0.0,62,0.00,,---,0.00,VWS V14.00,2013-05-21 02:37:00,
2013-05-20 22:38:00,56.8,44.0,30.07,WNW,294,4.0,4.0,62,0.00,,---,0.00,VWS V14.00,2013-05-21 02:38:00,
2013-05-20 22:39:00,56.8,44.8,30.07,WNW,285,5.4,6.0,64,0.00,,---,0.00,VWS V14.00,2013-05-21 02:39:00,
2013-05-20 22:42:00,56.8,46.0,30.07,WNW,287,4.0,4.0,67,0.00,,---,0.00,VWS V14.00,2013-05-21 02:42:00,
2013-05-20 22:43:00,56.8,46.0,30.07,WNW,287,0.0,0.0,67,0.00,,---,0.00,VWS V14.00,2013-05-21 02:43:00,
2013-05-20 22:44:00,56.8,46.0,30.07,WNW,287,0.0,0.0,67,0.00,,---,0.00,VWS V14.00,2013-05-21 02:44:00,
2013-05-20 22:47:00,56.8,45.6,30.07,WNW,287,0.0,0.0,66,0.00,,---,0.00,VWS V14.00,2013-05-21 02:47:00,
2013-05-20 22:48:00,56.8,45.6,30.07,NNE,21,4.0,4.0,66,0.04,,---,0.04,VWS V14.00,2013-05-21 02:48:00,
2013-05-20 22:49:00,56.8,45.6,30.07,NNE,26,7.4,7.4,66,0.08,,---,0.08,VWS V14.00,2013-05-21 02:49:00,
2013-05-20 22:52:00,56.8,45.6,30.07,NNE,26,4.0,4.0,66,0.08,,---,0.08,VWS V14.00,2013-05-21 02:52:00,
2013-05-20 22:53:00,56.8,46.0,30.07,NNE,26,4.0,4.0,67,0.08,,---,0.08,VWS V14.00,2013-05-21 02:53:00,
2013-05-20 22:54:00,56.8,46.4,30.07,NW,321,4.0,4.7,68,0.08,,---,0.08,VWS V14.00,2013-05-21 02:54:00,
2013-05-20 22:55:00,56.8,46.4,30.07,NW,321,3.4,4.7,68,0.08,,---,0.08,VWS V14.00,2013-05-21 02:55:00,
2013-05-20 22:58:00,56.7,46.6,30.07,NW,321,0.0,0.0,69,0.08,,---,0.08,VWS V14.00,2013-05-21 02:58:00,
2013-05-20 22:59:00,56.7,46.6,30.07,NW,321,0.0,0.0,69,0.08,,---,0.08,VWS V14.00,2013-05-21 02:59:00,
2013-05-20 23:00:00,56.7,46.6,30.07,NW,321,0.0,0.0,69,0.08,,---,0.08,VWS V14.00,2013-05-21 03:00:00,
2013-05-20 23:03:00,56.5,46.5,30.07,NW,321,0.0,0.0,69,0.08,,---,0.08,VWS V14.00,2013-05-21 03:03:00,
2013-05-20 23:04:00,56.7,46.6,30.07,NW,316,5.4,5.4,69,0.08,,---,0.08,VWS V14.00,2013-05-21 03:04:00,
2013-05-20 23:05:00,56.7,47.0,30.07,NW,316,4.7,5.4,70,0.08,,---,0.08,VWS V14.00,2013-05-21 03:05:00,
2013-05-20 23:08:00,56.7,47.4,30.07,North,353,4.0,4.7,71,0.08,,---,0.08,VWS V14.00,2013-05-21 03:08:00,
2013-05-20 23:09:00,56.5,47.6,30.07,North,353,0.0,0.0,72,0.08,,---,0.08,VWS V14.00,2013-05-21 03:09:00,
2013-05-20 23:10:00,56.5,47.6,30.07,North,353,0.0,0.0,72,0.08,,---,0.08,VWS V14.00,2013-05-21 03:10:00,
2013-05-20 23:13:00,56.5,47.6,30.07,North,353,0.0,0.0,72,0.08,,---,0.08,VWS V14.00,2013-05-21 03:13:00,
2013-05-20 23:15:00,56.5,47.6,30.07,North,353,0.0,0.0,72,0.08,,---,0.08,VWS V14.00,2013-05-21 03:15:00,
2013-05-20 23:18:00,56.5,47.6,30.07,North,353,0.0,0.0,72,0.08,,---,0.08,VWS V14.00,2013-05-21 03:18:00,
2013-05-20 23:20:00,56.5,47.6,30.07,North,353,0.0,0.0,72,0.08,,---,0.08,VWS V14.00,2013-05-21 03:20:00,
2013-05-20 23:21:00,56.5,47.6,30.07,North,353,0.0,0.0,72,0.08,,---,0.08,VWS V14.00,2013-05-21 03:21:00,
2013-05-20 23:23:00,56.5,47.6,30.07,North,353,0.0,0.0,72,0.08,,---,0.08,VWS V14.00,2013-05-21 03:23:00,
2013-05-20 23:24:00,56.5,47.6,30.07,North,353,0.0,0.0,72,0.08,,---,0.08,VWS V14.00,2013-05-21 03:24:00,
2013-05-20 23:25:00,56.5,47.9,30.07,North,353,0.0,0.0,73,0.08,,---,0.08,VWS V14.00,2013-05-21 03:25:00,
2013-05-20 23:26:00,56.5,47.9,30.07,North,353,0.0,0.0,73,0.08,,---,0.08,VWS V14.00,2013-05-21 03:26:00,
2013-05-20 23:28:00,56.5,47.9,30.07,North,353,0.0,0.0,73,0.08,,---,0.08,VWS V14.00,2013-05-21 03:28:00,
2013-05-20 23:29:00,56.5,47.9,30.07,North,353,0.0,0.0,73,0.08,,---,0.08,VWS V14.00,2013-05-21 03:29:00,
2013-05-20 23:30:00,56.5,47.9,30.07,North,353,0.0,0.0,73,0.08,,---,0.08,VWS V14.00,2013-05-21 03:30:00,
2013-05-20 23:31:00,56.5,47.9,30.07,North,353,0.0,0.0,73,0.08,,---,0.08,VWS V14.00,2013-05-21 03:31:00,
2013-05-20 23:34:00,56.5,47.9,30.07,North,353,0.0,0.0,73,0.08,,---,0.08,VWS V14.00,2013-05-21 03:34:00,
2013-05-20 23:35:00,56.5,47.9,30.07,North,353,0.0,0.0,73,0.08,,---,0.08,VWS V14.00,2013-05-21 03:35:00,
2013-05-20 23:36:00,56.5,47.9,30.07,North,353,0.0,0.0,73,0.08,,---,0.08,VWS V14.00,2013-05-21 03:36:00,
2013-05-20 23:39:00,56.5,47.9,30.07,North,353,0.0,0.0,73,0.08,,---,0.08,VWS V14.00,2013-05-21 03:39:00,
2013-05-20 23:40:00,56.5,47.9,30.07,North,353,0.0,0.0,73,0.08,,---,0.08,VWS V14.00,2013-05-21 03:40:00,
2013-05-20 23:41:00,56.5,47.9,30.07,North,353,0.0,0.0,73,0.08,,---,0.08,VWS V14.00,2013-05-21 03:41:00,
2013-05-20 23:44:00,56.5,47.9,30.07,North,353,0.0,0.0,73,0.08,,---,0.08,VWS V14.00,2013-05-21 03:44:00,
2013-05-20 23:46:00,56.5,47.9,30.07,North,353,0.0,0.0,73,0.08,,---,0.08,VWS V14.00,2013-05-21 03:46:00,
2013-05-20 23:49:00,56.5,47.9,30.07,North,353,0.0,0.0,73,0.04,,---,0.08,VWS V14.00,2013-05-21 03:49:00,
2013-05-20 23:51:00,56.5,47.9,30.07,North,353,0.0,0.0,73,0.00,,---,0.08,VWS V14.00,2013-05-21 03:51:00,
2013-05-20 23:54:00,56.7,48.1,30.07,North,353,0.0,0.0,73,0.00,,---,0.08,VWS V14.00,2013-05-21 03:54:00,
2013-05-20 23:56:00,56.7,48.1,30.07,North,353,0.0,0.0,73,0.00,,---,0.08,VWS V14.00,2013-05-21 03:56:00,
2013-05-20 23:59:00,56.7,48.1,30.07,North,353,0.0,0.0,73,0.00,,---,0.08,VWS V14.00,2013-05-21 03:59:00,